<?xml version="1.0" encoding="UTF-8" standalone="no" ?>
<gpx xmlns="http://www.topografix.com/GPX/1/1" xmlns:xsi="http://www.w3.org/2001/XMLSchema-instance" xsi:schemaLocation="http://www.topografix.com/GPX/1/1 http://www.topografix.com/GPX/1/1/gpx.xsd" version="1.1" creator="VisuGPX - https://www.visugpx.com">
  <metadata>
    <name>2015-10-23 09:17:31</name>
    <desc><![CDATA[File with points/tracks from Locus Free/3.12.2]]></desc>
  </metadata>
  <trk>
    <name><![CDATA[2015-10-23 09:17:31]]></name>
    <trkseg>
      <trkpt lat="48.07943" lon="-4.22456">
        <ele>118</ele>
        <time>2015-10-23T07:17:31Z</time>
      </trkpt>
      <trkpt lat="48.07945" lon="-4.22455">
        <ele>118</ele>
        <time>2015-10-23T07:18:22Z</time>
      </trkpt>
      <trkpt lat="48.0796" lon="-4.22441">
        <ele>123.57</ele>
        <time>2015-10-23T07:18:33Z</time>
      </trkpt>
      <trkpt lat="48.07969" lon="-4.22427">
        <ele>123.08</ele>
        <time>2015-10-23T07:18:43Z</time>
      </trkpt>
      <trkpt lat="48.07983" lon="-4.22412">
        <ele>107.83</ele>
        <time>2015-10-23T07:18:54Z</time>
      </trkpt>
      <trkpt lat="48.07989" lon="-4.2242">
        <ele>100.24</ele>
        <time>2015-10-23T07:19:04Z</time>
      </trkpt>
      <trkpt lat="48.08007" lon="-4.22415">
        <ele>102.14</ele>
        <time>2015-10-23T07:19:15Z</time>
      </trkpt>
      <trkpt lat="48.08027" lon="-4.22402">
        <ele>103.08</ele>
        <time>2015-10-23T07:19:26Z</time>
      </trkpt>
      <trkpt lat="48.08039" lon="-4.22403">
        <ele>108.89</ele>
        <time>2015-10-23T07:19:37Z</time>
      </trkpt>
      <trkpt lat="48.08053" lon="-4.22409">
        <ele>113.86</ele>
        <time>2015-10-23T07:19:48Z</time>
      </trkpt>
      <trkpt lat="48.0806" lon="-4.22416">
        <ele>114.25</ele>
        <time>2015-10-23T07:19:59Z</time>
      </trkpt>
      <trkpt lat="48.08067" lon="-4.22416">
        <ele>116.98</ele>
        <time>2015-10-23T07:20:10Z</time>
      </trkpt>
      <trkpt lat="48.08069" lon="-4.22413">
        <ele>116.5</ele>
        <time>2015-10-23T07:20:23Z</time>
      </trkpt>
      <trkpt lat="48.08075" lon="-4.22397">
        <ele>120.24</ele>
        <time>2015-10-23T07:20:34Z</time>
      </trkpt>
      <trkpt lat="48.08086" lon="-4.22379">
        <ele>123</ele>
        <time>2015-10-23T07:20:45Z</time>
      </trkpt>
      <trkpt lat="48.08098" lon="-4.22371">
        <ele>125.62</ele>
        <time>2015-10-23T07:20:55Z</time>
      </trkpt>
      <trkpt lat="48.08115" lon="-4.22362">
        <ele>122.87</ele>
        <time>2015-10-23T07:21:06Z</time>
      </trkpt>
      <trkpt lat="48.08122" lon="-4.2236">
        <ele>125.26</ele>
        <time>2015-10-23T07:21:16Z</time>
      </trkpt>
      <trkpt lat="48.08137" lon="-4.22364">
        <ele>127.11</ele>
        <time>2015-10-23T07:21:27Z</time>
      </trkpt>
      <trkpt lat="48.08145" lon="-4.22358">
        <ele>131.86</ele>
        <time>2015-10-23T07:21:38Z</time>
      </trkpt>
      <trkpt lat="48.08153" lon="-4.22369">
        <ele>134.11</ele>
        <time>2015-10-23T07:21:48Z</time>
      </trkpt>
      <trkpt lat="48.08158" lon="-4.22366">
        <ele>137.48</ele>
        <time>2015-10-23T07:21:59Z</time>
      </trkpt>
      <trkpt lat="48.08172" lon="-4.22362">
        <ele>141</ele>
        <time>2015-10-23T07:22:09Z</time>
      </trkpt>
      <trkpt lat="48.08181" lon="-4.2233">
        <ele>141.24</ele>
        <time>2015-10-23T07:22:20Z</time>
      </trkpt>
      <trkpt lat="48.08195" lon="-4.22321">
        <ele>139</ele>
        <time>2015-10-23T07:22:31Z</time>
      </trkpt>
      <trkpt lat="48.08209" lon="-4.22318">
        <ele>138.24</ele>
        <time>2015-10-23T07:22:42Z</time>
      </trkpt>
      <trkpt lat="48.08219" lon="-4.22323">
        <ele>141.68</ele>
        <time>2015-10-23T07:22:52Z</time>
      </trkpt>
      <trkpt lat="48.08229" lon="-4.22316">
        <ele>149.86</ele>
        <time>2015-10-23T07:23:02Z</time>
      </trkpt>
      <trkpt lat="48.08245" lon="-4.22309">
        <ele>143.79</ele>
        <time>2015-10-23T07:23:13Z</time>
      </trkpt>
      <trkpt lat="48.08251" lon="-4.22307">
        <ele>150.89</ele>
        <time>2015-10-23T07:23:23Z</time>
      </trkpt>
      <trkpt lat="48.08261" lon="-4.22305">
        <ele>153.21</ele>
        <time>2015-10-23T07:23:34Z</time>
      </trkpt>
      <trkpt lat="48.08275" lon="-4.22298">
        <ele>157.4</ele>
        <time>2015-10-23T07:23:45Z</time>
      </trkpt>
      <trkpt lat="48.08286" lon="-4.22302">
        <ele>154.14</ele>
        <time>2015-10-23T07:23:56Z</time>
      </trkpt>
      <trkpt lat="48.08297" lon="-4.22306">
        <ele>152.56</ele>
        <time>2015-10-23T07:24:07Z</time>
      </trkpt>
      <trkpt lat="48.08316" lon="-4.22312">
        <ele>150.68</ele>
        <time>2015-10-23T07:24:18Z</time>
      </trkpt>
      <trkpt lat="48.08329" lon="-4.22315">
        <ele>153.6</ele>
        <time>2015-10-23T07:24:28Z</time>
      </trkpt>
      <trkpt lat="48.08348" lon="-4.22313">
        <ele>149.73</ele>
        <time>2015-10-23T07:24:39Z</time>
      </trkpt>
      <trkpt lat="48.08361" lon="-4.22318">
        <ele>147.76</ele>
        <time>2015-10-23T07:24:50Z</time>
      </trkpt>
      <trkpt lat="48.08379" lon="-4.22317">
        <ele>150.2</ele>
        <time>2015-10-23T07:25:00Z</time>
      </trkpt>
      <trkpt lat="48.08398" lon="-4.22311">
        <ele>145.3</ele>
        <time>2015-10-23T07:25:11Z</time>
      </trkpt>
      <trkpt lat="48.08413" lon="-4.22313">
        <ele>143.89</ele>
        <time>2015-10-23T07:25:21Z</time>
      </trkpt>
      <trkpt lat="48.08428" lon="-4.2231">
        <ele>145.9</ele>
        <time>2015-10-23T07:25:31Z</time>
      </trkpt>
      <trkpt lat="48.08439" lon="-4.22315">
        <ele>151.99</ele>
        <time>2015-10-23T07:25:42Z</time>
      </trkpt>
      <trkpt lat="48.08456" lon="-4.22307">
        <ele>150.49</ele>
        <time>2015-10-23T07:25:53Z</time>
      </trkpt>
      <trkpt lat="48.08472" lon="-4.22303">
        <ele>150.95</ele>
        <time>2015-10-23T07:26:04Z</time>
      </trkpt>
      <trkpt lat="48.08486" lon="-4.22309">
        <ele>155.92</ele>
        <time>2015-10-23T07:26:15Z</time>
      </trkpt>
      <trkpt lat="48.08505" lon="-4.22314">
        <ele>156.14</ele>
        <time>2015-10-23T07:26:26Z</time>
      </trkpt>
      <trkpt lat="48.08515" lon="-4.22292">
        <ele>158.19</ele>
        <time>2015-10-23T07:26:37Z</time>
      </trkpt>
      <trkpt lat="48.08529" lon="-4.22279">
        <ele>157.86</ele>
        <time>2015-10-23T07:26:48Z</time>
      </trkpt>
      <trkpt lat="48.08538" lon="-4.22274">
        <ele>153.01</ele>
        <time>2015-10-23T07:26:59Z</time>
      </trkpt>
      <trkpt lat="48.08556" lon="-4.22255">
        <ele>150.42</ele>
        <time>2015-10-23T07:27:10Z</time>
      </trkpt>
      <trkpt lat="48.08568" lon="-4.22254">
        <ele>153.92</ele>
        <time>2015-10-23T07:27:21Z</time>
      </trkpt>
      <trkpt lat="48.0858" lon="-4.22248">
        <ele>156.01</ele>
        <time>2015-10-23T07:27:31Z</time>
      </trkpt>
      <trkpt lat="48.0859" lon="-4.22245">
        <ele>160.94</ele>
        <time>2015-10-23T07:27:42Z</time>
      </trkpt>
      <trkpt lat="48.08603" lon="-4.22252">
        <ele>163.39</ele>
        <time>2015-10-23T07:27:52Z</time>
      </trkpt>
      <trkpt lat="48.08618" lon="-4.22252">
        <ele>162.94</ele>
        <time>2015-10-23T07:28:03Z</time>
      </trkpt>
      <trkpt lat="48.08628" lon="-4.22258">
        <ele>167</ele>
        <time>2015-10-23T07:28:13Z</time>
      </trkpt>
      <trkpt lat="48.08641" lon="-4.22254">
        <ele>170.5</ele>
        <time>2015-10-23T07:28:24Z</time>
      </trkpt>
      <trkpt lat="48.08664" lon="-4.22249">
        <ele>170.75</ele>
        <time>2015-10-23T07:28:34Z</time>
      </trkpt>
      <trkpt lat="48.08677" lon="-4.22248">
        <ele>171.81</ele>
        <time>2015-10-23T07:28:45Z</time>
      </trkpt>
      <trkpt lat="48.08692" lon="-4.22248">
        <ele>172.12</ele>
        <time>2015-10-23T07:28:55Z</time>
      </trkpt>
      <trkpt lat="48.08703" lon="-4.22242">
        <ele>170.33</ele>
        <time>2015-10-23T07:29:05Z</time>
      </trkpt>
      <trkpt lat="48.08721" lon="-4.22237">
        <ele>165.71</ele>
        <time>2015-10-23T07:29:16Z</time>
      </trkpt>
      <trkpt lat="48.0873" lon="-4.22233">
        <ele>175.25</ele>
        <time>2015-10-23T07:29:30Z</time>
      </trkpt>
      <trkpt lat="48.08746" lon="-4.22219">
        <ele>173.23</ele>
        <time>2015-10-23T07:29:41Z</time>
      </trkpt>
      <trkpt lat="48.0876" lon="-4.22219">
        <ele>180.91</ele>
        <time>2015-10-23T07:29:52Z</time>
      </trkpt>
      <trkpt lat="48.08772" lon="-4.2221">
        <ele>182.51</ele>
        <time>2015-10-23T07:30:02Z</time>
      </trkpt>
      <trkpt lat="48.08791" lon="-4.22205">
        <ele>180.99</ele>
        <time>2015-10-23T07:30:12Z</time>
      </trkpt>
      <trkpt lat="48.08804" lon="-4.22193">
        <ele>185.54</ele>
        <time>2015-10-23T07:30:23Z</time>
      </trkpt>
      <trkpt lat="48.0882" lon="-4.22188">
        <ele>183.76</ele>
        <time>2015-10-23T07:30:33Z</time>
      </trkpt>
      <trkpt lat="48.08843" lon="-4.22189">
        <ele>177.63</ele>
        <time>2015-10-23T07:30:44Z</time>
      </trkpt>
      <trkpt lat="48.08853" lon="-4.22176">
        <ele>181.3</ele>
        <time>2015-10-23T07:30:54Z</time>
      </trkpt>
      <trkpt lat="48.08863" lon="-4.22175">
        <ele>182.92</ele>
        <time>2015-10-23T07:31:05Z</time>
      </trkpt>
      <trkpt lat="48.08872" lon="-4.22167">
        <ele>184.75</ele>
        <time>2015-10-23T07:31:15Z</time>
      </trkpt>
      <trkpt lat="48.08889" lon="-4.22158">
        <ele>183.98</ele>
        <time>2015-10-23T07:31:26Z</time>
      </trkpt>
      <trkpt lat="48.0891" lon="-4.22156">
        <ele>180.61</ele>
        <time>2015-10-23T07:31:37Z</time>
      </trkpt>
      <trkpt lat="48.08923" lon="-4.22167">
        <ele>181.16</ele>
        <time>2015-10-23T07:31:48Z</time>
      </trkpt>
      <trkpt lat="48.08934" lon="-4.22171">
        <ele>185</ele>
        <time>2015-10-23T07:31:59Z</time>
      </trkpt>
      <trkpt lat="48.08944" lon="-4.2218">
        <ele>193.17</ele>
        <time>2015-10-23T07:32:10Z</time>
      </trkpt>
      <trkpt lat="48.08955" lon="-4.22188">
        <ele>191.12</ele>
        <time>2015-10-23T07:32:20Z</time>
      </trkpt>
      <trkpt lat="48.08961" lon="-4.22203">
        <ele>189.68</ele>
        <time>2015-10-23T07:32:30Z</time>
      </trkpt>
      <trkpt lat="48.08967" lon="-4.22224">
        <ele>195.92</ele>
        <time>2015-10-23T07:32:40Z</time>
      </trkpt>
      <trkpt lat="48.08974" lon="-4.22242">
        <ele>196.94</ele>
        <time>2015-10-23T07:32:51Z</time>
      </trkpt>
      <trkpt lat="48.08979" lon="-4.22257">
        <ele>197.11</ele>
        <time>2015-10-23T07:33:02Z</time>
      </trkpt>
      <trkpt lat="48.08987" lon="-4.22268">
        <ele>200</ele>
        <time>2015-10-23T07:33:12Z</time>
      </trkpt>
      <trkpt lat="48.08992" lon="-4.22285">
        <ele>205.97</ele>
        <time>2015-10-23T07:33:23Z</time>
      </trkpt>
      <trkpt lat="48.08998" lon="-4.22306">
        <ele>204.02</ele>
        <time>2015-10-23T07:33:34Z</time>
      </trkpt>
      <trkpt lat="48.09005" lon="-4.22319">
        <ele>203.84</ele>
        <time>2015-10-23T07:33:44Z</time>
      </trkpt>
      <trkpt lat="48.09015" lon="-4.22337">
        <ele>206.25</ele>
        <time>2015-10-23T07:33:54Z</time>
      </trkpt>
      <trkpt lat="48.0902" lon="-4.22352">
        <ele>206.97</ele>
        <time>2015-10-23T07:34:04Z</time>
      </trkpt>
      <trkpt lat="48.09026" lon="-4.22369">
        <ele>209.2</ele>
        <time>2015-10-23T07:34:15Z</time>
      </trkpt>
      <trkpt lat="48.09029" lon="-4.22391">
        <ele>204.83</ele>
        <time>2015-10-23T07:34:26Z</time>
      </trkpt>
      <trkpt lat="48.09026" lon="-4.22411">
        <ele>209.06</ele>
        <time>2015-10-23T07:34:37Z</time>
      </trkpt>
      <trkpt lat="48.09017" lon="-4.22425">
        <ele>213.93</ele>
        <time>2015-10-23T07:34:47Z</time>
      </trkpt>
      <trkpt lat="48.09017" lon="-4.22441">
        <ele>214.02</ele>
        <time>2015-10-23T07:34:57Z</time>
      </trkpt>
      <trkpt lat="48.09014" lon="-4.22449">
        <ele>209.25</ele>
        <time>2015-10-23T07:35:07Z</time>
      </trkpt>
      <trkpt lat="48.09014" lon="-4.22451">
        <ele>210.94</ele>
        <time>2015-10-23T07:35:18Z</time>
      </trkpt>
      <trkpt lat="48.09007" lon="-4.22468">
        <ele>214.64</ele>
        <time>2015-10-23T07:35:29Z</time>
      </trkpt>
      <trkpt lat="48.08999" lon="-4.22485">
        <ele>214.7</ele>
        <time>2015-10-23T07:35:39Z</time>
      </trkpt>
      <trkpt lat="48.08992" lon="-4.22504">
        <ele>213.87</ele>
        <time>2015-10-23T07:35:49Z</time>
      </trkpt>
      <trkpt lat="48.08987" lon="-4.22516">
        <ele>211.06</ele>
        <time>2015-10-23T07:36:00Z</time>
      </trkpt>
      <trkpt lat="48.08978" lon="-4.2254">
        <ele>208.99</ele>
        <time>2015-10-23T07:36:11Z</time>
      </trkpt>
      <trkpt lat="48.08969" lon="-4.22559">
        <ele>211.56</ele>
        <time>2015-10-23T07:36:22Z</time>
      </trkpt>
      <trkpt lat="48.08962" lon="-4.22574">
        <ele>206.31</ele>
        <time>2015-10-23T07:36:33Z</time>
      </trkpt>
      <trkpt lat="48.08964" lon="-4.22585">
        <ele>205.06</ele>
        <time>2015-10-23T07:36:43Z</time>
      </trkpt>
      <trkpt lat="48.08963" lon="-4.22585">
        <ele>205.94</ele>
        <time>2015-10-23T07:36:53Z</time>
      </trkpt>
      <trkpt lat="48.08961" lon="-4.22585">
        <ele>206.95</ele>
        <time>2015-10-23T07:37:04Z</time>
      </trkpt>
      <trkpt lat="48.08955" lon="-4.22596">
        <ele>207.79</ele>
        <time>2015-10-23T07:37:15Z</time>
      </trkpt>
      <trkpt lat="48.08958" lon="-4.22599">
        <ele>207.94</ele>
        <time>2015-10-23T07:37:26Z</time>
      </trkpt>
      <trkpt lat="48.08951" lon="-4.22603">
        <ele>204.25</ele>
        <time>2015-10-23T07:37:37Z</time>
      </trkpt>
      <trkpt lat="48.08948" lon="-4.22604">
        <ele>205</ele>
        <time>2015-10-23T07:37:47Z</time>
      </trkpt>
      <trkpt lat="48.08943" lon="-4.22621">
        <ele>205.99</ele>
        <time>2015-10-23T07:37:58Z</time>
      </trkpt>
      <trkpt lat="48.08939" lon="-4.22637">
        <ele>206.69</ele>
        <time>2015-10-23T07:38:09Z</time>
      </trkpt>
      <trkpt lat="48.08933" lon="-4.22653">
        <ele>209.93</ele>
        <time>2015-10-23T07:38:19Z</time>
      </trkpt>
      <trkpt lat="48.08927" lon="-4.22668">
        <ele>209.22</ele>
        <time>2015-10-23T07:38:30Z</time>
      </trkpt>
      <trkpt lat="48.08918" lon="-4.22688">
        <ele>207.3</ele>
        <time>2015-10-23T07:38:41Z</time>
      </trkpt>
      <trkpt lat="48.08912" lon="-4.22714">
        <ele>202.38</ele>
        <time>2015-10-23T07:38:52Z</time>
      </trkpt>
      <trkpt lat="48.08905" lon="-4.22739">
        <ele>199.96</ele>
        <time>2015-10-23T07:39:03Z</time>
      </trkpt>
      <trkpt lat="48.08899" lon="-4.22748">
        <ele>199.94</ele>
        <time>2015-10-23T07:39:14Z</time>
      </trkpt>
      <trkpt lat="48.08892" lon="-4.22754">
        <ele>202</ele>
        <time>2015-10-23T07:39:25Z</time>
      </trkpt>
      <trkpt lat="48.08888" lon="-4.22755">
        <ele>198.02</ele>
        <time>2015-10-23T07:39:35Z</time>
      </trkpt>
      <trkpt lat="48.08887" lon="-4.22755">
        <ele>198</ele>
        <time>2015-10-23T07:39:51Z</time>
      </trkpt>
      <trkpt lat="48.08886" lon="-4.22759">
        <ele>197.51</ele>
        <time>2015-10-23T07:40:02Z</time>
      </trkpt>
      <trkpt lat="48.08886" lon="-4.22761">
        <ele>199</ele>
        <time>2015-10-23T07:40:12Z</time>
      </trkpt>
      <trkpt lat="48.08894" lon="-4.2276">
        <ele>196.06</ele>
        <time>2015-10-23T07:40:23Z</time>
      </trkpt>
      <trkpt lat="48.08893" lon="-4.22753">
        <ele>195</ele>
        <time>2015-10-23T07:40:33Z</time>
      </trkpt>
      <trkpt lat="48.08885" lon="-4.22753">
        <ele>195</ele>
        <time>2015-10-23T07:40:44Z</time>
      </trkpt>
      <trkpt lat="48.08885" lon="-4.22755">
        <ele>195.25</ele>
        <time>2015-10-23T07:41:13Z</time>
      </trkpt>
      <trkpt lat="48.08884" lon="-4.22759">
        <ele>192</ele>
        <time>2015-10-23T07:41:23Z</time>
      </trkpt>
      <trkpt lat="48.08886" lon="-4.22758">
        <ele>191.25</ele>
        <time>2015-10-23T07:41:34Z</time>
      </trkpt>
      <trkpt lat="48.08898" lon="-4.22763">
        <ele>195.06</ele>
        <time>2015-10-23T07:41:45Z</time>
      </trkpt>
      <trkpt lat="48.08905" lon="-4.22767">
        <ele>196.03</ele>
        <time>2015-10-23T07:41:55Z</time>
      </trkpt>
      <trkpt lat="48.08906" lon="-4.22767">
        <ele>197.75</ele>
        <time>2015-10-23T07:42:05Z</time>
      </trkpt>
      <trkpt lat="48.08905" lon="-4.22763">
        <ele>198</ele>
        <time>2015-10-23T07:42:16Z</time>
      </trkpt>
      <trkpt lat="48.08907" lon="-4.22762">
        <ele>196</ele>
        <time>2015-10-23T07:42:58Z</time>
      </trkpt>
      <trkpt lat="48.08907" lon="-4.22764">
        <ele>195.25</ele>
        <time>2015-10-23T07:43:12Z</time>
      </trkpt>
      <trkpt lat="48.08906" lon="-4.22765">
        <ele>195.01</ele>
        <time>2015-10-23T07:43:23Z</time>
      </trkpt>
      <trkpt lat="48.089" lon="-4.22771">
        <ele>196.43</ele>
        <time>2015-10-23T07:43:34Z</time>
      </trkpt>
      <trkpt lat="48.08897" lon="-4.22786">
        <ele>197.98</ele>
        <time>2015-10-23T07:43:44Z</time>
      </trkpt>
      <trkpt lat="48.08888" lon="-4.22804">
        <ele>197.5</ele>
        <time>2015-10-23T07:43:55Z</time>
      </trkpt>
      <trkpt lat="48.08883" lon="-4.22822">
        <ele>195</ele>
        <time>2015-10-23T07:44:06Z</time>
      </trkpt>
      <trkpt lat="48.08875" lon="-4.22838">
        <ele>192.68</ele>
        <time>2015-10-23T07:44:17Z</time>
      </trkpt>
      <trkpt lat="48.08869" lon="-4.22841">
        <ele>191.56</ele>
        <time>2015-10-23T07:44:27Z</time>
      </trkpt>
      <trkpt lat="48.08864" lon="-4.22868">
        <ele>189</ele>
        <time>2015-10-23T07:44:38Z</time>
      </trkpt>
      <trkpt lat="48.08854" lon="-4.22893">
        <ele>185.51</ele>
        <time>2015-10-23T07:44:49Z</time>
      </trkpt>
      <trkpt lat="48.08846" lon="-4.22911">
        <ele>187.75</ele>
        <time>2015-10-23T07:45:00Z</time>
      </trkpt>
      <trkpt lat="48.08842" lon="-4.22918">
        <ele>186.76</ele>
        <time>2015-10-23T07:45:11Z</time>
      </trkpt>
      <trkpt lat="48.08842" lon="-4.22919">
        <ele>186</ele>
        <time>2015-10-23T07:45:22Z</time>
      </trkpt>
      <trkpt lat="48.08843" lon="-4.2292">
        <ele>184</ele>
        <time>2015-10-23T07:45:32Z</time>
      </trkpt>
      <trkpt lat="48.08844" lon="-4.22918">
        <ele>184</ele>
        <time>2015-10-23T07:45:43Z</time>
      </trkpt>
      <trkpt lat="48.08845" lon="-4.22917">
        <ele>185.94</ele>
        <time>2015-10-23T07:45:53Z</time>
      </trkpt>
      <trkpt lat="48.08845" lon="-4.22919">
        <ele>186</ele>
        <time>2015-10-23T07:47:03Z</time>
      </trkpt>
      <trkpt lat="48.08846" lon="-4.22919">
        <ele>185.25</ele>
        <time>2015-10-23T07:52:15Z</time>
      </trkpt>
      <trkpt lat="48.08846" lon="-4.22918">
        <ele>187</ele>
        <time>2015-10-23T07:52:55Z</time>
      </trkpt>
      <trkpt lat="48.08837" lon="-4.22929">
        <ele>188.25</ele>
        <time>2015-10-23T07:53:06Z</time>
      </trkpt>
      <trkpt lat="48.08824" lon="-4.22942">
        <ele>185.08</ele>
        <time>2015-10-23T07:53:16Z</time>
      </trkpt>
      <trkpt lat="48.08811" lon="-4.22958">
        <ele>182.05</ele>
        <time>2015-10-23T07:53:26Z</time>
      </trkpt>
      <trkpt lat="48.08798" lon="-4.22971">
        <ele>181.24</ele>
        <time>2015-10-23T07:53:36Z</time>
      </trkpt>
      <trkpt lat="48.08785" lon="-4.22989">
        <ele>180.27</ele>
        <time>2015-10-23T07:53:47Z</time>
      </trkpt>
      <trkpt lat="48.08775" lon="-4.23005">
        <ele>182.99</ele>
        <time>2015-10-23T07:53:58Z</time>
      </trkpt>
      <trkpt lat="48.08769" lon="-4.23022">
        <ele>184.3</ele>
        <time>2015-10-23T07:54:08Z</time>
      </trkpt>
      <trkpt lat="48.08775" lon="-4.23049">
        <ele>184.92</ele>
        <time>2015-10-23T07:54:19Z</time>
      </trkpt>
      <trkpt lat="48.08777" lon="-4.23049">
        <ele>187.98</ele>
        <time>2015-10-23T07:54:30Z</time>
      </trkpt>
      <trkpt lat="48.08774" lon="-4.23062">
        <ele>188</ele>
        <time>2015-10-23T07:54:40Z</time>
      </trkpt>
      <trkpt lat="48.08768" lon="-4.23068">
        <ele>182.08</ele>
        <time>2015-10-23T07:54:50Z</time>
      </trkpt>
      <trkpt lat="48.08768" lon="-4.23071">
        <ele>180.95</ele>
        <time>2015-10-23T07:55:01Z</time>
      </trkpt>
      <trkpt lat="48.08767" lon="-4.23078">
        <ele>179.76</ele>
        <time>2015-10-23T07:55:12Z</time>
      </trkpt>
      <trkpt lat="48.08768" lon="-4.23076">
        <ele>181</ele>
        <time>2015-10-23T07:55:23Z</time>
      </trkpt>
      <trkpt lat="48.0876" lon="-4.23078">
        <ele>179.08</ele>
        <time>2015-10-23T07:55:33Z</time>
      </trkpt>
      <trkpt lat="48.08755" lon="-4.23093">
        <ele>177.27</ele>
        <time>2015-10-23T07:55:44Z</time>
      </trkpt>
      <trkpt lat="48.08752" lon="-4.23096">
        <ele>177.73</ele>
        <time>2015-10-23T07:55:55Z</time>
      </trkpt>
      <trkpt lat="48.08751" lon="-4.23096">
        <ele>179</ele>
        <time>2015-10-23T07:56:05Z</time>
      </trkpt>
      <trkpt lat="48.08752" lon="-4.23098">
        <ele>178.25</ele>
        <time>2015-10-23T07:56:36Z</time>
      </trkpt>
      <trkpt lat="48.08751" lon="-4.2311">
        <ele>184.88</ele>
        <time>2015-10-23T07:56:47Z</time>
      </trkpt>
      <trkpt lat="48.08746" lon="-4.23125">
        <ele>184.93</ele>
        <time>2015-10-23T07:56:57Z</time>
      </trkpt>
      <trkpt lat="48.08739" lon="-4.23138">
        <ele>184.69</ele>
        <time>2015-10-23T07:57:08Z</time>
      </trkpt>
      <trkpt lat="48.08733" lon="-4.23151">
        <ele>186.81</ele>
        <time>2015-10-23T07:57:19Z</time>
      </trkpt>
      <trkpt lat="48.08724" lon="-4.23169">
        <ele>184.96</ele>
        <time>2015-10-23T07:57:30Z</time>
      </trkpt>
      <trkpt lat="48.08715" lon="-4.23191">
        <ele>184.99</ele>
        <time>2015-10-23T07:57:41Z</time>
      </trkpt>
      <trkpt lat="48.08705" lon="-4.23205">
        <ele>186.02</ele>
        <time>2015-10-23T07:57:51Z</time>
      </trkpt>
      <trkpt lat="48.08698" lon="-4.23224">
        <ele>186</ele>
        <time>2015-10-23T07:58:02Z</time>
      </trkpt>
      <trkpt lat="48.0869" lon="-4.23246">
        <ele>187</ele>
        <time>2015-10-23T07:58:13Z</time>
      </trkpt>
      <trkpt lat="48.08681" lon="-4.23262">
        <ele>185.08</ele>
        <time>2015-10-23T07:58:23Z</time>
      </trkpt>
      <trkpt lat="48.08676" lon="-4.23279">
        <ele>189.75</ele>
        <time>2015-10-23T07:58:34Z</time>
      </trkpt>
      <trkpt lat="48.0867" lon="-4.23295">
        <ele>190.99</ele>
        <time>2015-10-23T07:58:44Z</time>
      </trkpt>
      <trkpt lat="48.08663" lon="-4.23318">
        <ele>192</ele>
        <time>2015-10-23T07:58:55Z</time>
      </trkpt>
      <trkpt lat="48.08655" lon="-4.23335">
        <ele>193.01</ele>
        <time>2015-10-23T07:59:05Z</time>
      </trkpt>
      <trkpt lat="48.08648" lon="-4.23354">
        <ele>193.77</ele>
        <time>2015-10-23T07:59:15Z</time>
      </trkpt>
      <trkpt lat="48.08638" lon="-4.23372">
        <ele>190.47</ele>
        <time>2015-10-23T07:59:26Z</time>
      </trkpt>
      <trkpt lat="48.08628" lon="-4.2339">
        <ele>190.46</ele>
        <time>2015-10-23T07:59:37Z</time>
      </trkpt>
      <trkpt lat="48.08618" lon="-4.23409">
        <ele>186.06</ele>
        <time>2015-10-23T07:59:47Z</time>
      </trkpt>
      <trkpt lat="48.08619" lon="-4.23419">
        <ele>186.92</ele>
        <time>2015-10-23T07:59:58Z</time>
      </trkpt>
      <trkpt lat="48.08617" lon="-4.23419">
        <ele>190.75</ele>
        <time>2015-10-23T08:00:09Z</time>
      </trkpt>
      <trkpt lat="48.0861" lon="-4.23438">
        <ele>188.25</ele>
        <time>2015-10-23T08:00:19Z</time>
      </trkpt>
      <trkpt lat="48.08603" lon="-4.23455">
        <ele>187.27</ele>
        <time>2015-10-23T08:00:29Z</time>
      </trkpt>
      <trkpt lat="48.08595" lon="-4.23467">
        <ele>190.9</ele>
        <time>2015-10-23T08:00:39Z</time>
      </trkpt>
      <trkpt lat="48.08586" lon="-4.23481">
        <ele>195.06</ele>
        <time>2015-10-23T08:00:50Z</time>
      </trkpt>
      <trkpt lat="48.08575" lon="-4.23493">
        <ele>191.11</ele>
        <time>2015-10-23T08:01:00Z</time>
      </trkpt>
      <trkpt lat="48.08564" lon="-4.23516">
        <ele>190.06</ele>
        <time>2015-10-23T08:01:11Z</time>
      </trkpt>
      <trkpt lat="48.08558" lon="-4.23542">
        <ele>187.52</ele>
        <time>2015-10-23T08:01:21Z</time>
      </trkpt>
      <trkpt lat="48.08548" lon="-4.23558">
        <ele>191.2</ele>
        <time>2015-10-23T08:01:32Z</time>
      </trkpt>
      <trkpt lat="48.08541" lon="-4.23581">
        <ele>190.02</ele>
        <time>2015-10-23T08:01:42Z</time>
      </trkpt>
      <trkpt lat="48.08534" lon="-4.23601">
        <ele>193</ele>
        <time>2015-10-23T08:01:53Z</time>
      </trkpt>
      <trkpt lat="48.08521" lon="-4.23615">
        <ele>193.57</ele>
        <time>2015-10-23T08:02:04Z</time>
      </trkpt>
      <trkpt lat="48.08514" lon="-4.23641">
        <ele>184.08</ele>
        <time>2015-10-23T08:02:14Z</time>
      </trkpt>
      <trkpt lat="48.08516" lon="-4.23663">
        <ele>180.31</ele>
        <time>2015-10-23T08:02:24Z</time>
      </trkpt>
      <trkpt lat="48.08518" lon="-4.23666">
        <ele>183.75</ele>
        <time>2015-10-23T08:02:34Z</time>
      </trkpt>
      <trkpt lat="48.08517" lon="-4.23667">
        <ele>184</ele>
        <time>2015-10-23T08:02:45Z</time>
      </trkpt>
      <trkpt lat="48.08516" lon="-4.23667">
        <ele>184</ele>
        <time>2015-10-23T08:03:11Z</time>
      </trkpt>
      <trkpt lat="48.08502" lon="-4.23677">
        <ele>185</ele>
        <time>2015-10-23T08:03:22Z</time>
      </trkpt>
      <trkpt lat="48.08501" lon="-4.23677">
        <ele>185</ele>
        <time>2015-10-23T08:03:32Z</time>
      </trkpt>
      <trkpt lat="48.085" lon="-4.23676">
        <ele>185.98</ele>
        <time>2015-10-23T08:03:43Z</time>
      </trkpt>
      <trkpt lat="48.085" lon="-4.23664">
        <ele>188.98</ele>
        <time>2015-10-23T08:03:54Z</time>
      </trkpt>
      <trkpt lat="48.08502" lon="-4.23662">
        <ele>189.25</ele>
        <time>2015-10-23T08:04:06Z</time>
      </trkpt>
      <trkpt lat="48.08499" lon="-4.2367">
        <ele>187.02</ele>
        <time>2015-10-23T08:04:16Z</time>
      </trkpt>
      <trkpt lat="48.08501" lon="-4.23668">
        <ele>188</ele>
        <time>2015-10-23T08:04:27Z</time>
      </trkpt>
      <trkpt lat="48.08501" lon="-4.23665">
        <ele>190</ele>
        <time>2015-10-23T08:04:37Z</time>
      </trkpt>
      <trkpt lat="48.08501" lon="-4.23668">
        <ele>189.25</ele>
        <time>2015-10-23T08:06:00Z</time>
      </trkpt>
      <trkpt lat="48.08499" lon="-4.23676">
        <ele>185.94</ele>
        <time>2015-10-23T08:06:10Z</time>
      </trkpt>
      <trkpt lat="48.08505" lon="-4.23673">
        <ele>190</ele>
        <time>2015-10-23T08:06:21Z</time>
      </trkpt>
      <trkpt lat="48.08503" lon="-4.23673">
        <ele>190.75</ele>
        <time>2015-10-23T08:06:41Z</time>
      </trkpt>
      <trkpt lat="48.08503" lon="-4.23675">
        <ele>189.25</ele>
        <time>2015-10-23T08:07:02Z</time>
      </trkpt>
      <trkpt lat="48.08505" lon="-4.23674">
        <ele>189</ele>
        <time>2015-10-23T08:07:12Z</time>
      </trkpt>
      <trkpt lat="48.08505" lon="-4.23674">
        <ele>188</ele>
        <time>2015-10-23T08:07:23Z</time>
      </trkpt>
      <trkpt lat="48.08506" lon="-4.23672">
        <ele>189.01</ele>
        <time>2015-10-23T08:07:33Z</time>
      </trkpt>
      <trkpt lat="48.08504" lon="-4.23668">
        <ele>191</ele>
        <time>2015-10-23T08:07:44Z</time>
      </trkpt>
      <trkpt lat="48.08503" lon="-4.2367">
        <ele>189</ele>
        <time>2015-10-23T08:07:54Z</time>
      </trkpt>
      <trkpt lat="48.08502" lon="-4.23672">
        <ele>187.25</ele>
        <time>2015-10-23T08:08:13Z</time>
      </trkpt>
      <trkpt lat="48.0851" lon="-4.23667">
        <ele>187.31</ele>
        <time>2015-10-23T08:08:24Z</time>
      </trkpt>
      <trkpt lat="48.08514" lon="-4.23673">
        <ele>190.75</ele>
        <time>2015-10-23T08:08:35Z</time>
      </trkpt>
      <trkpt lat="48.08513" lon="-4.23676">
        <ele>191.98</ele>
        <time>2015-10-23T08:08:45Z</time>
      </trkpt>
      <trkpt lat="48.08513" lon="-4.23674">
        <ele>194.62</ele>
        <time>2015-10-23T08:08:59Z</time>
      </trkpt>
      <trkpt lat="48.08511" lon="-4.23677">
        <ele>193</ele>
        <time>2015-10-23T08:09:29Z</time>
      </trkpt>
      <trkpt lat="48.08513" lon="-4.23674">
        <ele>190.02</ele>
        <time>2015-10-23T08:09:39Z</time>
      </trkpt>
      <trkpt lat="48.08506" lon="-4.23677">
        <ele>187.25</ele>
        <time>2015-10-23T08:09:49Z</time>
      </trkpt>
      <trkpt lat="48.08505" lon="-4.23676">
        <ele>188</ele>
        <time>2015-10-23T08:10:00Z</time>
      </trkpt>
      <trkpt lat="48.08498" lon="-4.23682">
        <ele>188.93</ele>
        <time>2015-10-23T08:10:11Z</time>
      </trkpt>
      <trkpt lat="48.08489" lon="-4.23696">
        <ele>187.99</ele>
        <time>2015-10-23T08:10:21Z</time>
      </trkpt>
      <trkpt lat="48.08483" lon="-4.2371">
        <ele>190.81</ele>
        <time>2015-10-23T08:10:31Z</time>
      </trkpt>
      <trkpt lat="48.08474" lon="-4.23739">
        <ele>189.01</ele>
        <time>2015-10-23T08:10:42Z</time>
      </trkpt>
      <trkpt lat="48.08465" lon="-4.2376">
        <ele>185</ele>
        <time>2015-10-23T08:10:52Z</time>
      </trkpt>
      <trkpt lat="48.08455" lon="-4.23778">
        <ele>181.09</ele>
        <time>2015-10-23T08:11:02Z</time>
      </trkpt>
      <trkpt lat="48.08447" lon="-4.23797">
        <ele>184.06</ele>
        <time>2015-10-23T08:11:12Z</time>
      </trkpt>
      <trkpt lat="48.08439" lon="-4.23817">
        <ele>184.89</ele>
        <time>2015-10-23T08:11:23Z</time>
      </trkpt>
      <trkpt lat="48.0843" lon="-4.23833">
        <ele>184.06</ele>
        <time>2015-10-23T08:11:33Z</time>
      </trkpt>
      <trkpt lat="48.08417" lon="-4.2385">
        <ele>182.94</ele>
        <time>2015-10-23T08:11:44Z</time>
      </trkpt>
      <trkpt lat="48.0841" lon="-4.23869">
        <ele>181.28</ele>
        <time>2015-10-23T08:11:54Z</time>
      </trkpt>
      <trkpt lat="48.08411" lon="-4.23876">
        <ele>180</ele>
        <time>2015-10-23T08:12:04Z</time>
      </trkpt>
      <trkpt lat="48.08414" lon="-4.23875">
        <ele>180.8</ele>
        <time>2015-10-23T08:12:15Z</time>
      </trkpt>
      <trkpt lat="48.08415" lon="-4.23878">
        <ele>181</ele>
        <time>2015-10-23T08:12:26Z</time>
      </trkpt>
      <trkpt lat="48.08416" lon="-4.23877">
        <ele>181</ele>
        <time>2015-10-23T08:12:37Z</time>
      </trkpt>
      <trkpt lat="48.08413" lon="-4.23878">
        <ele>180</ele>
        <time>2015-10-23T08:12:48Z</time>
      </trkpt>
      <trkpt lat="48.08401" lon="-4.23889">
        <ele>176.77</ele>
        <time>2015-10-23T08:12:58Z</time>
      </trkpt>
      <trkpt lat="48.08394" lon="-4.23905">
        <ele>182.04</ele>
        <time>2015-10-23T08:13:08Z</time>
      </trkpt>
      <trkpt lat="48.08384" lon="-4.23927">
        <ele>182</ele>
        <time>2015-10-23T08:13:19Z</time>
      </trkpt>
      <trkpt lat="48.08375" lon="-4.23948">
        <ele>177.26</ele>
        <time>2015-10-23T08:13:30Z</time>
      </trkpt>
      <trkpt lat="48.08365" lon="-4.23967">
        <ele>177</ele>
        <time>2015-10-23T08:13:41Z</time>
      </trkpt>
      <trkpt lat="48.08356" lon="-4.23984">
        <ele>177.12</ele>
        <time>2015-10-23T08:13:52Z</time>
      </trkpt>
      <trkpt lat="48.08358" lon="-4.23992">
        <ele>175.06</ele>
        <time>2015-10-23T08:14:03Z</time>
      </trkpt>
      <trkpt lat="48.08365" lon="-4.23981">
        <ele>178.42</ele>
        <time>2015-10-23T08:14:13Z</time>
      </trkpt>
      <trkpt lat="48.08382" lon="-4.23958">
        <ele>175.8</ele>
        <time>2015-10-23T08:14:23Z</time>
      </trkpt>
      <trkpt lat="48.0839" lon="-4.23944">
        <ele>176.05</ele>
        <time>2015-10-23T08:14:34Z</time>
      </trkpt>
      <trkpt lat="48.08402" lon="-4.23923">
        <ele>182.98</ele>
        <time>2015-10-23T08:14:44Z</time>
      </trkpt>
      <trkpt lat="48.08413" lon="-4.23903">
        <ele>184</ele>
        <time>2015-10-23T08:14:55Z</time>
      </trkpt>
      <trkpt lat="48.08418" lon="-4.23882">
        <ele>185.56</ele>
        <time>2015-10-23T08:15:05Z</time>
      </trkpt>
      <trkpt lat="48.08426" lon="-4.23863">
        <ele>181.19</ele>
        <time>2015-10-23T08:15:16Z</time>
      </trkpt>
      <trkpt lat="48.0844" lon="-4.23841">
        <ele>183.95</ele>
        <time>2015-10-23T08:15:27Z</time>
      </trkpt>
      <trkpt lat="48.08449" lon="-4.23818">
        <ele>184.99</ele>
        <time>2015-10-23T08:15:37Z</time>
      </trkpt>
      <trkpt lat="48.08461" lon="-4.23797">
        <ele>185.75</ele>
        <time>2015-10-23T08:15:48Z</time>
      </trkpt>
      <trkpt lat="48.08468" lon="-4.23776">
        <ele>183.01</ele>
        <time>2015-10-23T08:15:58Z</time>
      </trkpt>
      <trkpt lat="48.08478" lon="-4.2376">
        <ele>187.74</ele>
        <time>2015-10-23T08:16:08Z</time>
      </trkpt>
      <trkpt lat="48.08488" lon="-4.23735">
        <ele>190</ele>
        <time>2015-10-23T08:16:19Z</time>
      </trkpt>
      <trkpt lat="48.08495" lon="-4.23717">
        <ele>188.06</ele>
        <time>2015-10-23T08:16:29Z</time>
      </trkpt>
      <trkpt lat="48.08495" lon="-4.23695">
        <ele>185</ele>
        <time>2015-10-23T08:16:40Z</time>
      </trkpt>
      <trkpt lat="48.08492" lon="-4.23692">
        <ele>183</ele>
        <time>2015-10-23T08:16:51Z</time>
      </trkpt>
      <trkpt lat="48.08491" lon="-4.2369">
        <ele>182.77</ele>
        <time>2015-10-23T08:17:10Z</time>
      </trkpt>
      <trkpt lat="48.0849" lon="-4.23686">
        <ele>186</ele>
        <time>2015-10-23T08:17:21Z</time>
      </trkpt>
      <trkpt lat="48.08489" lon="-4.23688">
        <ele>186.94</ele>
        <time>2015-10-23T08:17:34Z</time>
      </trkpt>
      <trkpt lat="48.08488" lon="-4.23686">
        <ele>186.75</ele>
        <time>2015-10-23T08:17:44Z</time>
      </trkpt>
      <trkpt lat="48.08489" lon="-4.23684">
        <ele>190.98</ele>
        <time>2015-10-23T08:17:54Z</time>
      </trkpt>
      <trkpt lat="48.08489" lon="-4.23685">
        <ele>190.06</ele>
        <time>2015-10-23T08:18:05Z</time>
      </trkpt>
      <trkpt lat="48.08484" lon="-4.23684">
        <ele>191.25</ele>
        <time>2015-10-23T08:18:16Z</time>
      </trkpt>
      <trkpt lat="48.08472" lon="-4.23686">
        <ele>188.96</ele>
        <time>2015-10-23T08:18:27Z</time>
      </trkpt>
      <trkpt lat="48.08469" lon="-4.23685">
        <ele>187.95</ele>
        <time>2015-10-23T08:18:38Z</time>
      </trkpt>
      <trkpt lat="48.08458" lon="-4.23691">
        <ele>190.98</ele>
        <time>2015-10-23T08:18:49Z</time>
      </trkpt>
      <trkpt lat="48.0845" lon="-4.23696">
        <ele>191.05</ele>
        <time>2015-10-23T08:18:59Z</time>
      </trkpt>
      <trkpt lat="48.0844" lon="-4.23701">
        <ele>190.19</ele>
        <time>2015-10-23T08:19:10Z</time>
      </trkpt>
      <trkpt lat="48.08426" lon="-4.23709">
        <ele>191.75</ele>
        <time>2015-10-23T08:19:21Z</time>
      </trkpt>
      <trkpt lat="48.08411" lon="-4.23716">
        <ele>192.18</ele>
        <time>2015-10-23T08:19:32Z</time>
      </trkpt>
      <trkpt lat="48.08396" lon="-4.23723">
        <ele>189.87</ele>
        <time>2015-10-23T08:19:43Z</time>
      </trkpt>
      <trkpt lat="48.08381" lon="-4.23734">
        <ele>188.01</ele>
        <time>2015-10-23T08:19:53Z</time>
      </trkpt>
      <trkpt lat="48.08366" lon="-4.23738">
        <ele>188.18</ele>
        <time>2015-10-23T08:20:04Z</time>
      </trkpt>
      <trkpt lat="48.08353" lon="-4.23748">
        <ele>180.32</ele>
        <time>2015-10-23T08:20:15Z</time>
      </trkpt>
      <trkpt lat="48.0834" lon="-4.23752">
        <ele>175.34</ele>
        <time>2015-10-23T08:20:26Z</time>
      </trkpt>
      <trkpt lat="48.08324" lon="-4.23761">
        <ele>177.36</ele>
        <time>2015-10-23T08:20:36Z</time>
      </trkpt>
      <trkpt lat="48.08309" lon="-4.2377">
        <ele>174.24</ele>
        <time>2015-10-23T08:20:47Z</time>
      </trkpt>
      <trkpt lat="48.083" lon="-4.23777">
        <ele>174.25</ele>
        <time>2015-10-23T08:20:57Z</time>
      </trkpt>
      <trkpt lat="48.08297" lon="-4.23779">
        <ele>171.25</ele>
        <time>2015-10-23T08:21:08Z</time>
      </trkpt>
      <trkpt lat="48.08295" lon="-4.23775">
        <ele>176.47</ele>
        <time>2015-10-23T08:21:19Z</time>
      </trkpt>
      <trkpt lat="48.08293" lon="-4.23771">
        <ele>178</ele>
        <time>2015-10-23T08:21:30Z</time>
      </trkpt>
      <trkpt lat="48.08293" lon="-4.23773">
        <ele>178.98</ele>
        <time>2015-10-23T08:21:41Z</time>
      </trkpt>
      <trkpt lat="48.08293" lon="-4.23772">
        <ele>178.5</ele>
        <time>2015-10-23T08:22:22Z</time>
      </trkpt>
      <trkpt lat="48.08292" lon="-4.23789">
        <ele>171.08</ele>
        <time>2015-10-23T08:22:32Z</time>
      </trkpt>
      <trkpt lat="48.08292" lon="-4.23804">
        <ele>168.81</ele>
        <time>2015-10-23T08:22:42Z</time>
      </trkpt>
      <trkpt lat="48.08289" lon="-4.23815">
        <ele>175.78</ele>
        <time>2015-10-23T08:22:52Z</time>
      </trkpt>
      <trkpt lat="48.08285" lon="-4.23833">
        <ele>175.5</ele>
        <time>2015-10-23T08:23:02Z</time>
      </trkpt>
      <trkpt lat="48.08275" lon="-4.23854">
        <ele>175.98</ele>
        <time>2015-10-23T08:23:13Z</time>
      </trkpt>
      <trkpt lat="48.08263" lon="-4.23876">
        <ele>174.08</ele>
        <time>2015-10-23T08:23:24Z</time>
      </trkpt>
      <trkpt lat="48.08259" lon="-4.23897">
        <ele>174.2</ele>
        <time>2015-10-23T08:23:35Z</time>
      </trkpt>
      <trkpt lat="48.08255" lon="-4.23917">
        <ele>177.86</ele>
        <time>2015-10-23T08:23:46Z</time>
      </trkpt>
      <trkpt lat="48.08247" lon="-4.23941">
        <ele>175.52</ele>
        <time>2015-10-23T08:23:57Z</time>
      </trkpt>
      <trkpt lat="48.08239" lon="-4.23962">
        <ele>176.21</ele>
        <time>2015-10-23T08:24:08Z</time>
      </trkpt>
      <trkpt lat="48.08233" lon="-4.23977">
        <ele>170</ele>
        <time>2015-10-23T08:24:18Z</time>
      </trkpt>
      <trkpt lat="48.0823" lon="-4.23977">
        <ele>169</ele>
        <time>2015-10-23T08:24:29Z</time>
      </trkpt>
      <trkpt lat="48.0823" lon="-4.23985">
        <ele>167.27</ele>
        <time>2015-10-23T08:24:39Z</time>
      </trkpt>
      <trkpt lat="48.08228" lon="-4.24007">
        <ele>169.43</ele>
        <time>2015-10-23T08:24:49Z</time>
      </trkpt>
      <trkpt lat="48.08232" lon="-4.24029">
        <ele>176.69</ele>
        <time>2015-10-23T08:25:00Z</time>
      </trkpt>
      <trkpt lat="48.08234" lon="-4.24043">
        <ele>175.3</ele>
        <time>2015-10-23T08:25:11Z</time>
      </trkpt>
      <trkpt lat="48.08234" lon="-4.24044">
        <ele>174.07</ele>
        <time>2015-10-23T08:25:27Z</time>
      </trkpt>
      <trkpt lat="48.08233" lon="-4.24045">
        <ele>175</ele>
        <time>2015-10-23T08:25:52Z</time>
      </trkpt>
      <trkpt lat="48.08235" lon="-4.24055">
        <ele>174.31</ele>
        <time>2015-10-23T08:26:02Z</time>
      </trkpt>
      <trkpt lat="48.08234" lon="-4.2406">
        <ele>172.05</ele>
        <time>2015-10-23T08:26:13Z</time>
      </trkpt>
      <trkpt lat="48.08236" lon="-4.24059">
        <ele>171.08</ele>
        <time>2015-10-23T08:26:23Z</time>
      </trkpt>
      <trkpt lat="48.08236" lon="-4.24057">
        <ele>171.67</ele>
        <time>2015-10-23T08:26:34Z</time>
      </trkpt>
      <trkpt lat="48.08233" lon="-4.24061">
        <ele>172.75</ele>
        <time>2015-10-23T08:26:56Z</time>
      </trkpt>
      <trkpt lat="48.08228" lon="-4.24079">
        <ele>169.57</ele>
        <time>2015-10-23T08:27:06Z</time>
      </trkpt>
      <trkpt lat="48.08219" lon="-4.24099">
        <ele>169.33</ele>
        <time>2015-10-23T08:27:16Z</time>
      </trkpt>
      <trkpt lat="48.08206" lon="-4.24112">
        <ele>170.02</ele>
        <time>2015-10-23T08:27:27Z</time>
      </trkpt>
      <trkpt lat="48.08205" lon="-4.24116">
        <ele>168</ele>
        <time>2015-10-23T08:27:37Z</time>
      </trkpt>
      <trkpt lat="48.08198" lon="-4.2412">
        <ele>166.09</ele>
        <time>2015-10-23T08:27:48Z</time>
      </trkpt>
      <trkpt lat="48.0818" lon="-4.24124">
        <ele>163.95</ele>
        <time>2015-10-23T08:27:59Z</time>
      </trkpt>
      <trkpt lat="48.08163" lon="-4.2413">
        <ele>165.79</ele>
        <time>2015-10-23T08:28:09Z</time>
      </trkpt>
      <trkpt lat="48.08149" lon="-4.24141">
        <ele>166.75</ele>
        <time>2015-10-23T08:28:19Z</time>
      </trkpt>
      <trkpt lat="48.08132" lon="-4.24153">
        <ele>162.34</ele>
        <time>2015-10-23T08:28:30Z</time>
      </trkpt>
      <trkpt lat="48.08116" lon="-4.24163">
        <ele>163.25</ele>
        <time>2015-10-23T08:28:41Z</time>
      </trkpt>
      <trkpt lat="48.08101" lon="-4.24165">
        <ele>160.02</ele>
        <time>2015-10-23T08:28:51Z</time>
      </trkpt>
      <trkpt lat="48.08085" lon="-4.24167">
        <ele>152.01</ele>
        <time>2015-10-23T08:29:02Z</time>
      </trkpt>
      <trkpt lat="48.0807" lon="-4.24163">
        <ele>154.92</ele>
        <time>2015-10-23T08:29:12Z</time>
      </trkpt>
      <trkpt lat="48.08059" lon="-4.24155">
        <ele>153.59</ele>
        <time>2015-10-23T08:29:23Z</time>
      </trkpt>
      <trkpt lat="48.08058" lon="-4.24155">
        <ele>156.06</ele>
        <time>2015-10-23T08:29:33Z</time>
      </trkpt>
      <trkpt lat="48.0806" lon="-4.24154">
        <ele>155.25</ele>
        <time>2015-10-23T08:29:43Z</time>
      </trkpt>
      <trkpt lat="48.08055" lon="-4.24156">
        <ele>156</ele>
        <time>2015-10-23T08:29:54Z</time>
      </trkpt>
      <trkpt lat="48.08056" lon="-4.24154">
        <ele>156.5</ele>
        <time>2015-10-23T08:30:29Z</time>
      </trkpt>
      <trkpt lat="48.08055" lon="-4.24149">
        <ele>154</ele>
        <time>2015-10-23T08:30:39Z</time>
      </trkpt>
      <trkpt lat="48.08058" lon="-4.24144">
        <ele>156</ele>
        <time>2015-10-23T08:30:49Z</time>
      </trkpt>
      <trkpt lat="48.08059" lon="-4.24143">
        <ele>155</ele>
        <time>2015-10-23T08:31:02Z</time>
      </trkpt>
      <trkpt lat="48.08069" lon="-4.24127">
        <ele>157.98</ele>
        <time>2015-10-23T08:31:12Z</time>
      </trkpt>
      <trkpt lat="48.08078" lon="-4.24113">
        <ele>156.06</ele>
        <time>2015-10-23T08:31:22Z</time>
      </trkpt>
      <trkpt lat="48.08096" lon="-4.24094">
        <ele>157</ele>
        <time>2015-10-23T08:31:33Z</time>
      </trkpt>
      <trkpt lat="48.08104" lon="-4.24085">
        <ele>153.98</ele>
        <time>2015-10-23T08:31:44Z</time>
      </trkpt>
      <trkpt lat="48.08118" lon="-4.2407">
        <ele>152.41</ele>
        <time>2015-10-23T08:31:55Z</time>
      </trkpt>
      <trkpt lat="48.08122" lon="-4.24051">
        <ele>154.76</ele>
        <time>2015-10-23T08:32:06Z</time>
      </trkpt>
      <trkpt lat="48.08112" lon="-4.24037">
        <ele>150.68</ele>
        <time>2015-10-23T08:32:17Z</time>
      </trkpt>
      <trkpt lat="48.08105" lon="-4.24026">
        <ele>145.94</ele>
        <time>2015-10-23T08:32:28Z</time>
      </trkpt>
      <trkpt lat="48.08088" lon="-4.24019">
        <ele>147.98</ele>
        <time>2015-10-23T08:32:39Z</time>
      </trkpt>
      <trkpt lat="48.08079" lon="-4.2402">
        <ele>144.87</ele>
        <time>2015-10-23T08:32:49Z</time>
      </trkpt>
      <trkpt lat="48.08066" lon="-4.24017">
        <ele>140.83</ele>
        <time>2015-10-23T08:33:00Z</time>
      </trkpt>
      <trkpt lat="48.08053" lon="-4.24025">
        <ele>125.02</ele>
        <time>2015-10-23T08:33:10Z</time>
      </trkpt>
      <trkpt lat="48.08032" lon="-4.2404">
        <ele>126.55</ele>
        <time>2015-10-23T08:33:21Z</time>
      </trkpt>
      <trkpt lat="48.0802" lon="-4.24032">
        <ele>125.49</ele>
        <time>2015-10-23T08:33:32Z</time>
      </trkpt>
      <trkpt lat="48.08017" lon="-4.24027">
        <ele>129.23</ele>
        <time>2015-10-23T08:33:42Z</time>
      </trkpt>
      <trkpt lat="48.08016" lon="-4.24026">
        <ele>130</ele>
        <time>2015-10-23T08:33:53Z</time>
      </trkpt>
      <trkpt lat="48.08016" lon="-4.24025">
        <ele>126.25</ele>
        <time>2015-10-23T08:34:10Z</time>
      </trkpt>
      <trkpt lat="48.08008" lon="-4.24017">
        <ele>125.24</ele>
        <time>2015-10-23T08:34:20Z</time>
      </trkpt>
      <trkpt lat="48.07995" lon="-4.24002">
        <ele>132.68</ele>
        <time>2015-10-23T08:34:31Z</time>
      </trkpt>
      <trkpt lat="48.07981" lon="-4.23992">
        <ele>128.8</ele>
        <time>2015-10-23T08:34:42Z</time>
      </trkpt>
      <trkpt lat="48.07964" lon="-4.23986">
        <ele>134.03</ele>
        <time>2015-10-23T08:34:52Z</time>
      </trkpt>
      <trkpt lat="48.07951" lon="-4.23981">
        <ele>131.06</ele>
        <time>2015-10-23T08:35:02Z</time>
      </trkpt>
      <trkpt lat="48.07939" lon="-4.23974">
        <ele>128.33</ele>
        <time>2015-10-23T08:35:13Z</time>
      </trkpt>
      <trkpt lat="48.07935" lon="-4.23972">
        <ele>129</ele>
        <time>2015-10-23T08:35:24Z</time>
      </trkpt>
      <trkpt lat="48.07932" lon="-4.23975">
        <ele>130.05</ele>
        <time>2015-10-23T08:35:34Z</time>
      </trkpt>
      <trkpt lat="48.07934" lon="-4.2398">
        <ele>126</ele>
        <time>2015-10-23T08:35:45Z</time>
      </trkpt>
      <trkpt lat="48.07922" lon="-4.23973">
        <ele>130.98</ele>
        <time>2015-10-23T08:35:56Z</time>
      </trkpt>
      <trkpt lat="48.07911" lon="-4.23975">
        <ele>132.92</ele>
        <time>2015-10-23T08:36:06Z</time>
      </trkpt>
      <trkpt lat="48.07897" lon="-4.23987">
        <ele>132.52</ele>
        <time>2015-10-23T08:36:17Z</time>
      </trkpt>
      <trkpt lat="48.07885" lon="-4.23996">
        <ele>132.25</ele>
        <time>2015-10-23T08:36:27Z</time>
      </trkpt>
      <trkpt lat="48.07872" lon="-4.24004">
        <ele>130.8</ele>
        <time>2015-10-23T08:36:38Z</time>
      </trkpt>
      <trkpt lat="48.07864" lon="-4.24004">
        <ele>129.92</ele>
        <time>2015-10-23T08:36:48Z</time>
      </trkpt>
      <trkpt lat="48.07863" lon="-4.24006">
        <ele>130</ele>
        <time>2015-10-23T08:36:59Z</time>
      </trkpt>
      <trkpt lat="48.07866" lon="-4.24006">
        <ele>132.26</ele>
        <time>2015-10-23T08:37:18Z</time>
      </trkpt>
      <trkpt lat="48.07866" lon="-4.24008">
        <ele>133.5</ele>
        <time>2015-10-23T08:37:28Z</time>
      </trkpt>
      <trkpt lat="48.07865" lon="-4.24008">
        <ele>134</ele>
        <time>2015-10-23T08:37:43Z</time>
      </trkpt>
      <trkpt lat="48.07864" lon="-4.24007">
        <ele>135.25</ele>
        <time>2015-10-23T08:38:46Z</time>
      </trkpt>
      <trkpt lat="48.0786" lon="-4.24011">
        <ele>131.99</ele>
        <time>2015-10-23T08:38:57Z</time>
      </trkpt>
      <trkpt lat="48.07863" lon="-4.24008">
        <ele>129.86</ele>
        <time>2015-10-23T08:39:08Z</time>
      </trkpt>
      <trkpt lat="48.07864" lon="-4.24004">
        <ele>131.69</ele>
        <time>2015-10-23T08:39:57Z</time>
      </trkpt>
      <trkpt lat="48.07861" lon="-4.24004">
        <ele>135</ele>
        <time>2015-10-23T08:40:07Z</time>
      </trkpt>
      <trkpt lat="48.07861" lon="-4.24003">
        <ele>138.93</ele>
        <time>2015-10-23T08:40:21Z</time>
      </trkpt>
      <trkpt lat="48.07864" lon="-4.23991">
        <ele>133.07</ele>
        <time>2015-10-23T08:40:32Z</time>
      </trkpt>
      <trkpt lat="48.07863" lon="-4.23974">
        <ele>130.5</ele>
        <time>2015-10-23T08:40:43Z</time>
      </trkpt>
      <trkpt lat="48.07874" lon="-4.23968">
        <ele>125.25</ele>
        <time>2015-10-23T08:40:54Z</time>
      </trkpt>
      <trkpt lat="48.0788" lon="-4.23972">
        <ele>129.73</ele>
        <time>2015-10-23T08:41:04Z</time>
      </trkpt>
      <trkpt lat="48.0789" lon="-4.23967">
        <ele>129</ele>
        <time>2015-10-23T08:41:15Z</time>
      </trkpt>
      <trkpt lat="48.07894" lon="-4.23966">
        <ele>127.75</ele>
        <time>2015-10-23T08:41:25Z</time>
      </trkpt>
      <trkpt lat="48.07903" lon="-4.23977">
        <ele>129.18</ele>
        <time>2015-10-23T08:41:36Z</time>
      </trkpt>
      <trkpt lat="48.07904" lon="-4.23971">
        <ele>124.09</ele>
        <time>2015-10-23T08:41:46Z</time>
      </trkpt>
      <trkpt lat="48.07904" lon="-4.2396">
        <ele>128.04</ele>
        <time>2015-10-23T08:41:56Z</time>
      </trkpt>
      <trkpt lat="48.07902" lon="-4.23954">
        <ele>124.26</ele>
        <time>2015-10-23T08:42:06Z</time>
      </trkpt>
      <trkpt lat="48.07883" lon="-4.23944">
        <ele>112.54</ele>
        <time>2015-10-23T08:42:17Z</time>
      </trkpt>
      <trkpt lat="48.07874" lon="-4.23938">
        <ele>115.95</ele>
        <time>2015-10-23T08:42:28Z</time>
      </trkpt>
      <trkpt lat="48.07874" lon="-4.23937">
        <ele>117</ele>
        <time>2015-10-23T08:42:40Z</time>
      </trkpt>
      <trkpt lat="48.07868" lon="-4.23933">
        <ele>117.64</ele>
        <time>2015-10-23T08:42:50Z</time>
      </trkpt>
      <trkpt lat="48.07868" lon="-4.23939">
        <ele>106.01</ele>
        <time>2015-10-23T08:43:01Z</time>
      </trkpt>
      <trkpt lat="48.0786" lon="-4.23937">
        <ele>108.01</ele>
        <time>2015-10-23T08:43:12Z</time>
      </trkpt>
      <trkpt lat="48.07843" lon="-4.23933">
        <ele>113.01</ele>
        <time>2015-10-23T08:43:23Z</time>
      </trkpt>
      <trkpt lat="48.07829" lon="-4.23938">
        <ele>112.56</ele>
        <time>2015-10-23T08:43:34Z</time>
      </trkpt>
      <trkpt lat="48.07822" lon="-4.23946">
        <ele>112.63</ele>
        <time>2015-10-23T08:43:45Z</time>
      </trkpt>
      <trkpt lat="48.07818" lon="-4.23964">
        <ele>115.58</ele>
        <time>2015-10-23T08:43:56Z</time>
      </trkpt>
      <trkpt lat="48.07819" lon="-4.23968">
        <ele>113.36</ele>
        <time>2015-10-23T08:44:07Z</time>
      </trkpt>
      <trkpt lat="48.07813" lon="-4.23958">
        <ele>120.05</ele>
        <time>2015-10-23T08:44:18Z</time>
      </trkpt>
      <trkpt lat="48.07806" lon="-4.23945">
        <ele>123.28</ele>
        <time>2015-10-23T08:44:28Z</time>
      </trkpt>
      <trkpt lat="48.07803" lon="-4.23935">
        <ele>118.5</ele>
        <time>2015-10-23T08:44:38Z</time>
      </trkpt>
      <trkpt lat="48.07788" lon="-4.23918">
        <ele>116.57</ele>
        <time>2015-10-23T08:44:49Z</time>
      </trkpt>
      <trkpt lat="48.07778" lon="-4.239">
        <ele>116.41</ele>
        <time>2015-10-23T08:45:00Z</time>
      </trkpt>
      <trkpt lat="48.0777" lon="-4.23884">
        <ele>119.4</ele>
        <time>2015-10-23T08:45:10Z</time>
      </trkpt>
      <trkpt lat="48.07758" lon="-4.23866">
        <ele>116.13</ele>
        <time>2015-10-23T08:45:21Z</time>
      </trkpt>
      <trkpt lat="48.07751" lon="-4.23867">
        <ele>110</ele>
        <time>2015-10-23T08:45:31Z</time>
      </trkpt>
      <trkpt lat="48.0775" lon="-4.23867">
        <ele>109</ele>
        <time>2015-10-23T08:45:42Z</time>
      </trkpt>
      <trkpt lat="48.07753" lon="-4.23861">
        <ele>109.75</ele>
        <time>2015-10-23T08:45:52Z</time>
      </trkpt>
      <trkpt lat="48.07756" lon="-4.23852">
        <ele>113</ele>
        <time>2015-10-23T08:46:02Z</time>
      </trkpt>
      <trkpt lat="48.07769" lon="-4.23821">
        <ele>113.31</ele>
        <time>2015-10-23T08:46:13Z</time>
      </trkpt>
      <trkpt lat="48.07768" lon="-4.23801">
        <ele>112.91</ele>
        <time>2015-10-23T08:46:23Z</time>
      </trkpt>
      <trkpt lat="48.0776" lon="-4.23782">
        <ele>117.59</ele>
        <time>2015-10-23T08:46:34Z</time>
      </trkpt>
      <trkpt lat="48.07753" lon="-4.23768">
        <ele>120.76</ele>
        <time>2015-10-23T08:46:45Z</time>
      </trkpt>
      <trkpt lat="48.07746" lon="-4.23754">
        <ele>114.03</ele>
        <time>2015-10-23T08:46:56Z</time>
      </trkpt>
      <trkpt lat="48.07743" lon="-4.23741">
        <ele>109.16</ele>
        <time>2015-10-23T08:47:06Z</time>
      </trkpt>
      <trkpt lat="48.07738" lon="-4.23724">
        <ele>109.1</ele>
        <time>2015-10-23T08:47:16Z</time>
      </trkpt>
      <trkpt lat="48.07742" lon="-4.23712">
        <ele>103.03</ele>
        <time>2015-10-23T08:47:27Z</time>
      </trkpt>
      <trkpt lat="48.07753" lon="-4.23691">
        <ele>102.3</ele>
        <time>2015-10-23T08:47:38Z</time>
      </trkpt>
      <trkpt lat="48.07756" lon="-4.23679">
        <ele>101</ele>
        <time>2015-10-23T08:47:49Z</time>
      </trkpt>
      <trkpt lat="48.07763" lon="-4.23661">
        <ele>101.66</ele>
        <time>2015-10-23T08:48:00Z</time>
      </trkpt>
      <trkpt lat="48.07778" lon="-4.23635">
        <ele>98.04</ele>
        <time>2015-10-23T08:48:11Z</time>
      </trkpt>
      <trkpt lat="48.07787" lon="-4.23611">
        <ele>102.41</ele>
        <time>2015-10-23T08:48:21Z</time>
      </trkpt>
      <trkpt lat="48.07794" lon="-4.23604">
        <ele>106.5</ele>
        <time>2015-10-23T08:48:31Z</time>
      </trkpt>
      <trkpt lat="48.07803" lon="-4.23602">
        <ele>102.75</ele>
        <time>2015-10-23T08:48:42Z</time>
      </trkpt>
      <trkpt lat="48.07815" lon="-4.23607">
        <ele>108.88</ele>
        <time>2015-10-23T08:48:53Z</time>
      </trkpt>
      <trkpt lat="48.07824" lon="-4.23616">
        <ele>111.05</ele>
        <time>2015-10-23T08:49:04Z</time>
      </trkpt>
      <trkpt lat="48.07838" lon="-4.23614">
        <ele>112</ele>
        <time>2015-10-23T08:49:15Z</time>
      </trkpt>
      <trkpt lat="48.07851" lon="-4.23621">
        <ele>117.98</ele>
        <time>2015-10-23T08:49:26Z</time>
      </trkpt>
      <trkpt lat="48.07863" lon="-4.23623">
        <ele>121.75</ele>
        <time>2015-10-23T08:49:37Z</time>
      </trkpt>
      <trkpt lat="48.07869" lon="-4.23624">
        <ele>122.55</ele>
        <time>2015-10-23T08:49:47Z</time>
      </trkpt>
      <trkpt lat="48.07883" lon="-4.23637">
        <ele>120.09</ele>
        <time>2015-10-23T08:49:58Z</time>
      </trkpt>
      <trkpt lat="48.07902" lon="-4.23636">
        <ele>119.03</ele>
        <time>2015-10-23T08:50:09Z</time>
      </trkpt>
      <trkpt lat="48.07917" lon="-4.2364">
        <ele>119.14</ele>
        <time>2015-10-23T08:50:19Z</time>
      </trkpt>
      <trkpt lat="48.07927" lon="-4.23642">
        <ele>121.3</ele>
        <time>2015-10-23T08:50:30Z</time>
      </trkpt>
      <trkpt lat="48.0793" lon="-4.23643">
        <ele>122.01</ele>
        <time>2015-10-23T08:50:41Z</time>
      </trkpt>
      <trkpt lat="48.07935" lon="-4.23642">
        <ele>124.2</ele>
        <time>2015-10-23T08:50:52Z</time>
      </trkpt>
      <trkpt lat="48.07949" lon="-4.23633">
        <ele>125.05</ele>
        <time>2015-10-23T08:51:02Z</time>
      </trkpt>
      <trkpt lat="48.07961" lon="-4.23622">
        <ele>123.2</ele>
        <time>2015-10-23T08:51:13Z</time>
      </trkpt>
      <trkpt lat="48.07975" lon="-4.23598">
        <ele>119.27</ele>
        <time>2015-10-23T08:51:24Z</time>
      </trkpt>
      <trkpt lat="48.0798" lon="-4.23585">
        <ele>118.86</ele>
        <time>2015-10-23T08:51:34Z</time>
      </trkpt>
      <trkpt lat="48.07989" lon="-4.23562">
        <ele>117.44</ele>
        <time>2015-10-23T08:51:45Z</time>
      </trkpt>
      <trkpt lat="48.07993" lon="-4.23553">
        <ele>114.04</ele>
        <time>2015-10-23T08:51:56Z</time>
      </trkpt>
      <trkpt lat="48.08006" lon="-4.23544">
        <ele>114.01</ele>
        <time>2015-10-23T08:52:07Z</time>
      </trkpt>
      <trkpt lat="48.08021" lon="-4.23542">
        <ele>114.99</ele>
        <time>2015-10-23T08:52:18Z</time>
      </trkpt>
      <trkpt lat="48.08034" lon="-4.23556">
        <ele>116.94</ele>
        <time>2015-10-23T08:52:28Z</time>
      </trkpt>
      <trkpt lat="48.08046" lon="-4.23566">
        <ele>115.27</ele>
        <time>2015-10-23T08:52:38Z</time>
      </trkpt>
      <trkpt lat="48.08053" lon="-4.23572">
        <ele>118.94</ele>
        <time>2015-10-23T08:52:49Z</time>
      </trkpt>
      <trkpt lat="48.08054" lon="-4.23571">
        <ele>124.73</ele>
        <time>2015-10-23T08:53:00Z</time>
      </trkpt>
      <trkpt lat="48.08056" lon="-4.23576">
        <ele>126.75</ele>
        <time>2015-10-23T08:54:42Z</time>
      </trkpt>
      <trkpt lat="48.08076" lon="-4.23592">
        <ele>122.04</ele>
        <time>2015-10-23T08:54:53Z</time>
      </trkpt>
      <trkpt lat="48.08079" lon="-4.23595">
        <ele>126</ele>
        <time>2015-10-23T08:55:04Z</time>
      </trkpt>
      <trkpt lat="48.08087" lon="-4.23602">
        <ele>128.68</ele>
        <time>2015-10-23T08:55:15Z</time>
      </trkpt>
      <trkpt lat="48.08101" lon="-4.23612">
        <ele>129.98</ele>
        <time>2015-10-23T08:55:26Z</time>
      </trkpt>
      <trkpt lat="48.08117" lon="-4.23616">
        <ele>129.75</ele>
        <time>2015-10-23T08:55:37Z</time>
      </trkpt>
      <trkpt lat="48.08117" lon="-4.23622">
        <ele>136.92</ele>
        <time>2015-10-23T08:55:48Z</time>
      </trkpt>
      <trkpt lat="48.08121" lon="-4.23613">
        <ele>141.02</ele>
        <time>2015-10-23T08:55:58Z</time>
      </trkpt>
      <trkpt lat="48.08122" lon="-4.23612">
        <ele>140.06</ele>
        <time>2015-10-23T08:56:09Z</time>
      </trkpt>
      <trkpt lat="48.08141" lon="-4.23603">
        <ele>136.48</ele>
        <time>2015-10-23T08:56:20Z</time>
      </trkpt>
      <trkpt lat="48.08154" lon="-4.23571">
        <ele>139.07</ele>
        <time>2015-10-23T08:56:31Z</time>
      </trkpt>
      <trkpt lat="48.08158" lon="-4.2355">
        <ele>138.74</ele>
        <time>2015-10-23T08:56:42Z</time>
      </trkpt>
      <trkpt lat="48.08148" lon="-4.23534">
        <ele>140.09</ele>
        <time>2015-10-23T08:56:53Z</time>
      </trkpt>
      <trkpt lat="48.08143" lon="-4.23531">
        <ele>140.25</ele>
        <time>2015-10-23T08:57:03Z</time>
      </trkpt>
      <trkpt lat="48.08142" lon="-4.23531">
        <ele>139</ele>
        <time>2015-10-23T08:58:20Z</time>
      </trkpt>
      <trkpt lat="48.08129" lon="-4.23526">
        <ele>136.34</ele>
        <time>2015-10-23T08:58:31Z</time>
      </trkpt>
      <trkpt lat="48.08115" lon="-4.23525">
        <ele>134.98</ele>
        <time>2015-10-23T08:58:41Z</time>
      </trkpt>
      <trkpt lat="48.08105" lon="-4.23514">
        <ele>134.1</ele>
        <time>2015-10-23T08:58:52Z</time>
      </trkpt>
      <trkpt lat="48.08092" lon="-4.23508">
        <ele>130.32</ele>
        <time>2015-10-23T08:59:03Z</time>
      </trkpt>
      <trkpt lat="48.08091" lon="-4.23507">
        <ele>128.94</ele>
        <time>2015-10-23T08:59:14Z</time>
      </trkpt>
      <trkpt lat="48.08084" lon="-4.23501">
        <ele>129.75</ele>
        <time>2015-10-23T08:59:33Z</time>
      </trkpt>
      <trkpt lat="48.08072" lon="-4.23463">
        <ele>128.25</ele>
        <time>2015-10-23T08:59:44Z</time>
      </trkpt>
      <trkpt lat="48.08041" lon="-4.23455">
        <ele>124.1</ele>
        <time>2015-10-23T08:59:54Z</time>
      </trkpt>
      <trkpt lat="48.08032" lon="-4.23437">
        <ele>120.27</ele>
        <time>2015-10-23T09:00:04Z</time>
      </trkpt>
      <trkpt lat="48.08024" lon="-4.23421">
        <ele>119.65</ele>
        <time>2015-10-23T09:00:15Z</time>
      </trkpt>
      <trkpt lat="48.08012" lon="-4.23409">
        <ele>119.97</ele>
        <time>2015-10-23T09:00:26Z</time>
      </trkpt>
      <trkpt lat="48.08004" lon="-4.23403">
        <ele>121.3</ele>
        <time>2015-10-23T09:00:37Z</time>
      </trkpt>
      <trkpt lat="48.07989" lon="-4.23394">
        <ele>116.81</ele>
        <time>2015-10-23T09:00:48Z</time>
      </trkpt>
      <trkpt lat="48.07977" lon="-4.23386">
        <ele>109.28</ele>
        <time>2015-10-23T09:00:58Z</time>
      </trkpt>
      <trkpt lat="48.07974" lon="-4.23373">
        <ele>110</ele>
        <time>2015-10-23T09:01:08Z</time>
      </trkpt>
      <trkpt lat="48.07973" lon="-4.23369">
        <ele>109</ele>
        <time>2015-10-23T09:01:18Z</time>
      </trkpt>
      <trkpt lat="48.07969" lon="-4.23367">
        <ele>109.08</ele>
        <time>2015-10-23T09:01:29Z</time>
      </trkpt>
      <trkpt lat="48.07966" lon="-4.23368">
        <ele>107.06</ele>
        <time>2015-10-23T09:01:39Z</time>
      </trkpt>
      <trkpt lat="48.07968" lon="-4.23368">
        <ele>109.93</ele>
        <time>2015-10-23T09:01:50Z</time>
      </trkpt>
      <trkpt lat="48.07967" lon="-4.23367">
        <ele>112.98</ele>
        <time>2015-10-23T09:02:06Z</time>
      </trkpt>
      <trkpt lat="48.07969" lon="-4.23361">
        <ele>113.75</ele>
        <time>2015-10-23T09:02:17Z</time>
      </trkpt>
      <trkpt lat="48.07978" lon="-4.2334">
        <ele>116.93</ele>
        <time>2015-10-23T09:02:27Z</time>
      </trkpt>
      <trkpt lat="48.07985" lon="-4.23315">
        <ele>121.91</ele>
        <time>2015-10-23T09:02:38Z</time>
      </trkpt>
      <trkpt lat="48.07994" lon="-4.23302">
        <ele>123.01</ele>
        <time>2015-10-23T09:02:48Z</time>
      </trkpt>
      <trkpt lat="48.08001" lon="-4.2328">
        <ele>122</ele>
        <time>2015-10-23T09:02:59Z</time>
      </trkpt>
      <trkpt lat="48.08011" lon="-4.2326">
        <ele>116.12</ele>
        <time>2015-10-23T09:03:09Z</time>
      </trkpt>
      <trkpt lat="48.0802" lon="-4.23244">
        <ele>119.44</ele>
        <time>2015-10-23T09:03:19Z</time>
      </trkpt>
      <trkpt lat="48.08034" lon="-4.23232">
        <ele>117.82</ele>
        <time>2015-10-23T09:03:30Z</time>
      </trkpt>
      <trkpt lat="48.08042" lon="-4.23235">
        <ele>117.81</ele>
        <time>2015-10-23T09:03:40Z</time>
      </trkpt>
      <trkpt lat="48.08056" lon="-4.23248">
        <ele>121.24</ele>
        <time>2015-10-23T09:03:51Z</time>
      </trkpt>
      <trkpt lat="48.08069" lon="-4.23261">
        <ele>125</ele>
        <time>2015-10-23T09:04:02Z</time>
      </trkpt>
      <trkpt lat="48.08085" lon="-4.23263">
        <ele>132.5</ele>
        <time>2015-10-23T09:04:12Z</time>
      </trkpt>
      <trkpt lat="48.08096" lon="-4.23283">
        <ele>130.06</ele>
        <time>2015-10-23T09:04:23Z</time>
      </trkpt>
      <trkpt lat="48.08115" lon="-4.23265">
        <ele>128.84</ele>
        <time>2015-10-23T09:04:34Z</time>
      </trkpt>
      <trkpt lat="48.08123" lon="-4.23254">
        <ele>130.91</ele>
        <time>2015-10-23T09:04:44Z</time>
      </trkpt>
      <trkpt lat="48.08122" lon="-4.23229">
        <ele>130.26</ele>
        <time>2015-10-23T09:04:55Z</time>
      </trkpt>
      <trkpt lat="48.08114" lon="-4.23218">
        <ele>127.77</ele>
        <time>2015-10-23T09:05:05Z</time>
      </trkpt>
      <trkpt lat="48.08099" lon="-4.23201">
        <ele>123.12</ele>
        <time>2015-10-23T09:05:16Z</time>
      </trkpt>
      <trkpt lat="48.08093" lon="-4.23188">
        <ele>118.92</ele>
        <time>2015-10-23T09:05:26Z</time>
      </trkpt>
      <trkpt lat="48.08076" lon="-4.2317">
        <ele>121.89</ele>
        <time>2015-10-23T09:05:37Z</time>
      </trkpt>
      <trkpt lat="48.08077" lon="-4.23151">
        <ele>121.19</ele>
        <time>2015-10-23T09:05:48Z</time>
      </trkpt>
      <trkpt lat="48.08083" lon="-4.23144">
        <ele>121.95</ele>
        <time>2015-10-23T09:05:59Z</time>
      </trkpt>
      <trkpt lat="48.08086" lon="-4.23136">
        <ele>122.94</ele>
        <time>2015-10-23T09:06:09Z</time>
      </trkpt>
      <trkpt lat="48.08096" lon="-4.23109">
        <ele>117.27</ele>
        <time>2015-10-23T09:06:20Z</time>
      </trkpt>
      <trkpt lat="48.08101" lon="-4.23101">
        <ele>118.2</ele>
        <time>2015-10-23T09:06:30Z</time>
      </trkpt>
      <trkpt lat="48.08105" lon="-4.23089">
        <ele>115.75</ele>
        <time>2015-10-23T09:06:40Z</time>
      </trkpt>
      <trkpt lat="48.08106" lon="-4.23092">
        <ele>114.75</ele>
        <time>2015-10-23T09:06:57Z</time>
      </trkpt>
      <trkpt lat="48.08104" lon="-4.2309">
        <ele>115.98</ele>
        <time>2015-10-23T09:07:07Z</time>
      </trkpt>
      <trkpt lat="48.08104" lon="-4.23091">
        <ele>117</ele>
        <time>2015-10-23T09:08:08Z</time>
      </trkpt>
      <trkpt lat="48.0811" lon="-4.23084">
        <ele>117.69</ele>
        <time>2015-10-23T09:08:19Z</time>
      </trkpt>
      <trkpt lat="48.08126" lon="-4.23068">
        <ele>118.93</ele>
        <time>2015-10-23T09:08:30Z</time>
      </trkpt>
      <trkpt lat="48.08135" lon="-4.23055">
        <ele>118.54</ele>
        <time>2015-10-23T09:08:40Z</time>
      </trkpt>
      <trkpt lat="48.08137" lon="-4.23055">
        <ele>119</ele>
        <time>2015-10-23T09:08:51Z</time>
      </trkpt>
      <trkpt lat="48.08137" lon="-4.23057">
        <ele>120</ele>
        <time>2015-10-23T09:09:01Z</time>
      </trkpt>
      <trkpt lat="48.08138" lon="-4.23056">
        <ele>120.19</ele>
        <time>2015-10-23T09:09:24Z</time>
      </trkpt>
      <trkpt lat="48.0815" lon="-4.23042">
        <ele>117.19</ele>
        <time>2015-10-23T09:09:35Z</time>
      </trkpt>
      <trkpt lat="48.0816" lon="-4.23034">
        <ele>116.93</ele>
        <time>2015-10-23T09:09:46Z</time>
      </trkpt>
      <trkpt lat="48.08172" lon="-4.23027">
        <ele>117.94</ele>
        <time>2015-10-23T09:09:56Z</time>
      </trkpt>
      <trkpt lat="48.08184" lon="-4.23032">
        <ele>120.81</ele>
        <time>2015-10-23T09:10:07Z</time>
      </trkpt>
      <trkpt lat="48.08193" lon="-4.23039">
        <ele>123</ele>
        <time>2015-10-23T09:10:17Z</time>
      </trkpt>
      <trkpt lat="48.08208" lon="-4.23046">
        <ele>125.93</ele>
        <time>2015-10-23T09:10:27Z</time>
      </trkpt>
      <trkpt lat="48.08219" lon="-4.23051">
        <ele>130.94</ele>
        <time>2015-10-23T09:10:37Z</time>
      </trkpt>
      <trkpt lat="48.08233" lon="-4.23057">
        <ele>137.96</ele>
        <time>2015-10-23T09:10:47Z</time>
      </trkpt>
      <trkpt lat="48.08246" lon="-4.23057">
        <ele>138.29</ele>
        <time>2015-10-23T09:10:58Z</time>
      </trkpt>
      <trkpt lat="48.08248" lon="-4.23056">
        <ele>137.12</ele>
        <time>2015-10-23T09:11:09Z</time>
      </trkpt>
      <trkpt lat="48.08263" lon="-4.23061">
        <ele>135</ele>
        <time>2015-10-23T09:11:20Z</time>
      </trkpt>
      <trkpt lat="48.08273" lon="-4.23068">
        <ele>132.31</ele>
        <time>2015-10-23T09:11:30Z</time>
      </trkpt>
      <trkpt lat="48.08272" lon="-4.23071">
        <ele>132.01</ele>
        <time>2015-10-23T09:11:41Z</time>
      </trkpt>
      <trkpt lat="48.08274" lon="-4.2307">
        <ele>132</ele>
        <time>2015-10-23T09:11:52Z</time>
      </trkpt>
      <trkpt lat="48.08272" lon="-4.23075">
        <ele>132</ele>
        <time>2015-10-23T09:12:27Z</time>
      </trkpt>
      <trkpt lat="48.08268" lon="-4.23069">
        <ele>131.68</ele>
        <time>2015-10-23T09:12:37Z</time>
      </trkpt>
      <trkpt lat="48.08267" lon="-4.23071">
        <ele>131.75</ele>
        <time>2015-10-23T09:12:48Z</time>
      </trkpt>
      <trkpt lat="48.0827" lon="-4.2307">
        <ele>136.92</ele>
        <time>2015-10-23T09:12:59Z</time>
      </trkpt>
      <trkpt lat="48.08271" lon="-4.23061">
        <ele>132.25</ele>
        <time>2015-10-23T09:13:09Z</time>
      </trkpt>
      <trkpt lat="48.0827" lon="-4.23062">
        <ele>136.1</ele>
        <time>2015-10-23T09:13:21Z</time>
      </trkpt>
      <trkpt lat="48.08272" lon="-4.23061">
        <ele>134</ele>
        <time>2015-10-23T09:13:32Z</time>
      </trkpt>
      <trkpt lat="48.08271" lon="-4.23054">
        <ele>132.5</ele>
        <time>2015-10-23T09:16:58Z</time>
      </trkpt>
      <trkpt lat="48.08254" lon="-4.23016">
        <ele>129.23</ele>
        <time>2015-10-23T09:17:09Z</time>
      </trkpt>
      <trkpt lat="48.08247" lon="-4.23005">
        <ele>136.66</ele>
        <time>2015-10-23T09:17:19Z</time>
      </trkpt>
      <trkpt lat="48.0824" lon="-4.22991">
        <ele>139.98</ele>
        <time>2015-10-23T09:17:29Z</time>
      </trkpt>
      <trkpt lat="48.08232" lon="-4.22986">
        <ele>141.74</ele>
        <time>2015-10-23T09:17:40Z</time>
      </trkpt>
      <trkpt lat="48.08231" lon="-4.22984">
        <ele>146.02</ele>
        <time>2015-10-23T09:17:51Z</time>
      </trkpt>
      <trkpt lat="48.08227" lon="-4.22983">
        <ele>151.69</ele>
        <time>2015-10-23T09:18:02Z</time>
      </trkpt>
      <trkpt lat="48.08226" lon="-4.22982">
        <ele>154</ele>
        <time>2015-10-23T09:18:31Z</time>
      </trkpt>
      <trkpt lat="48.08224" lon="-4.22972">
        <ele>152.5</ele>
        <time>2015-10-23T09:20:14Z</time>
      </trkpt>
      <trkpt lat="48.08205" lon="-4.22942">
        <ele>149.63</ele>
        <time>2015-10-23T09:20:24Z</time>
      </trkpt>
      <trkpt lat="48.08196" lon="-4.22927">
        <ele>149.78</ele>
        <time>2015-10-23T09:20:35Z</time>
      </trkpt>
      <trkpt lat="48.08183" lon="-4.22912">
        <ele>148.92</ele>
        <time>2015-10-23T09:20:45Z</time>
      </trkpt>
      <trkpt lat="48.08184" lon="-4.22899">
        <ele>150.89</ele>
        <time>2015-10-23T09:20:55Z</time>
      </trkpt>
      <trkpt lat="48.08176" lon="-4.22877">
        <ele>152.02</ele>
        <time>2015-10-23T09:21:05Z</time>
      </trkpt>
      <trkpt lat="48.08169" lon="-4.22856">
        <ele>148.27</ele>
        <time>2015-10-23T09:21:16Z</time>
      </trkpt>
      <trkpt lat="48.08176" lon="-4.22834">
        <ele>150.97</ele>
        <time>2015-10-23T09:21:27Z</time>
      </trkpt>
      <trkpt lat="48.08166" lon="-4.22813">
        <ele>151.75</ele>
        <time>2015-10-23T09:21:37Z</time>
      </trkpt>
      <trkpt lat="48.08161" lon="-4.22794">
        <ele>151.24</ele>
        <time>2015-10-23T09:21:47Z</time>
      </trkpt>
      <trkpt lat="48.08163" lon="-4.22772">
        <ele>149.08</ele>
        <time>2015-10-23T09:21:58Z</time>
      </trkpt>
      <trkpt lat="48.08166" lon="-4.22746">
        <ele>144.27</ele>
        <time>2015-10-23T09:22:08Z</time>
      </trkpt>
      <trkpt lat="48.08153" lon="-4.22729">
        <ele>143.08</ele>
        <time>2015-10-23T09:22:18Z</time>
      </trkpt>
      <trkpt lat="48.08159" lon="-4.22703">
        <ele>139.16</ele>
        <time>2015-10-23T09:22:29Z</time>
      </trkpt>
      <trkpt lat="48.08153" lon="-4.22678">
        <ele>140.31</ele>
        <time>2015-10-23T09:22:39Z</time>
      </trkpt>
      <trkpt lat="48.08154" lon="-4.22659">
        <ele>142.97</ele>
        <time>2015-10-23T09:22:50Z</time>
      </trkpt>
      <trkpt lat="48.08156" lon="-4.22634">
        <ele>143.7</ele>
        <time>2015-10-23T09:23:00Z</time>
      </trkpt>
      <trkpt lat="48.08147" lon="-4.2261">
        <ele>142.97</ele>
        <time>2015-10-23T09:23:11Z</time>
      </trkpt>
      <trkpt lat="48.08149" lon="-4.22594">
        <ele>136.04</ele>
        <time>2015-10-23T09:23:21Z</time>
      </trkpt>
      <trkpt lat="48.08148" lon="-4.22582">
        <ele>135.29</ele>
        <time>2015-10-23T09:23:32Z</time>
      </trkpt>
      <trkpt lat="48.08144" lon="-4.22567">
        <ele>133.52</ele>
        <time>2015-10-23T09:23:43Z</time>
      </trkpt>
      <trkpt lat="48.08148" lon="-4.22545">
        <ele>135.25</ele>
        <time>2015-10-23T09:23:53Z</time>
      </trkpt>
      <trkpt lat="48.08155" lon="-4.22542">
        <ele>134.11</ele>
        <time>2015-10-23T09:24:03Z</time>
      </trkpt>
      <trkpt lat="48.08166" lon="-4.22539">
        <ele>136.89</ele>
        <time>2015-10-23T09:24:13Z</time>
      </trkpt>
      <trkpt lat="48.08175" lon="-4.22542">
        <ele>142.72</ele>
        <time>2015-10-23T09:24:23Z</time>
      </trkpt>
      <trkpt lat="48.08186" lon="-4.22546">
        <ele>141.5</ele>
        <time>2015-10-23T09:24:34Z</time>
      </trkpt>
      <trkpt lat="48.08198" lon="-4.2255">
        <ele>145.75</ele>
        <time>2015-10-23T09:24:45Z</time>
      </trkpt>
      <trkpt lat="48.08211" lon="-4.22555">
        <ele>143.32</ele>
        <time>2015-10-23T09:24:56Z</time>
      </trkpt>
      <trkpt lat="48.08224" lon="-4.22562">
        <ele>145.38</ele>
        <time>2015-10-23T09:25:07Z</time>
      </trkpt>
      <trkpt lat="48.08237" lon="-4.2256">
        <ele>142.77</ele>
        <time>2015-10-23T09:25:18Z</time>
      </trkpt>
      <trkpt lat="48.08248" lon="-4.22554">
        <ele>148.73</ele>
        <time>2015-10-23T09:25:28Z</time>
      </trkpt>
      <trkpt lat="48.08263" lon="-4.22542">
        <ele>144.57</ele>
        <time>2015-10-23T09:25:39Z</time>
      </trkpt>
      <trkpt lat="48.08272" lon="-4.22544">
        <ele>147.92</ele>
        <time>2015-10-23T09:25:49Z</time>
      </trkpt>
      <trkpt lat="48.08271" lon="-4.2253">
        <ele>149.71</ele>
        <time>2015-10-23T09:26:00Z</time>
      </trkpt>
      <trkpt lat="48.08263" lon="-4.22517">
        <ele>155.46</ele>
        <time>2015-10-23T09:26:11Z</time>
      </trkpt>
      <trkpt lat="48.08249" lon="-4.22513">
        <ele>151.21</ele>
        <time>2015-10-23T09:26:22Z</time>
      </trkpt>
      <trkpt lat="48.08238" lon="-4.22504">
        <ele>149.94</ele>
        <time>2015-10-23T09:26:33Z</time>
      </trkpt>
      <trkpt lat="48.08224" lon="-4.225">
        <ele>147.09</ele>
        <time>2015-10-23T09:26:43Z</time>
      </trkpt>
      <trkpt lat="48.0821" lon="-4.22496">
        <ele>146.95</ele>
        <time>2015-10-23T09:26:53Z</time>
      </trkpt>
      <trkpt lat="48.08196" lon="-4.22492">
        <ele>145.01</ele>
        <time>2015-10-23T09:27:04Z</time>
      </trkpt>
      <trkpt lat="48.08183" lon="-4.2249">
        <ele>147.18</ele>
        <time>2015-10-23T09:27:15Z</time>
      </trkpt>
      <trkpt lat="48.08168" lon="-4.22484">
        <ele>146</ele>
        <time>2015-10-23T09:27:26Z</time>
      </trkpt>
      <trkpt lat="48.08154" lon="-4.22478">
        <ele>143.98</ele>
        <time>2015-10-23T09:27:36Z</time>
      </trkpt>
      <trkpt lat="48.08142" lon="-4.22477">
        <ele>143.08</ele>
        <time>2015-10-23T09:27:46Z</time>
      </trkpt>
      <trkpt lat="48.08128" lon="-4.22479">
        <ele>138.08</ele>
        <time>2015-10-23T09:27:56Z</time>
      </trkpt>
      <trkpt lat="48.08117" lon="-4.22482">
        <ele>130.39</ele>
        <time>2015-10-23T09:28:07Z</time>
      </trkpt>
      <trkpt lat="48.08111" lon="-4.22474">
        <ele>128.36</ele>
        <time>2015-10-23T09:28:17Z</time>
      </trkpt>
      <trkpt lat="48.08105" lon="-4.22463">
        <ele>128.93</ele>
        <time>2015-10-23T09:28:27Z</time>
      </trkpt>
      <trkpt lat="48.08095" lon="-4.22454">
        <ele>126.78</ele>
        <time>2015-10-23T09:28:38Z</time>
      </trkpt>
      <trkpt lat="48.08081" lon="-4.22455">
        <ele>130.27</ele>
        <time>2015-10-23T09:28:48Z</time>
      </trkpt>
      <trkpt lat="48.08073" lon="-4.22459">
        <ele>125.22</ele>
        <time>2015-10-23T09:28:59Z</time>
      </trkpt>
      <trkpt lat="48.08074" lon="-4.22437">
        <ele>124.59</ele>
        <time>2015-10-23T09:29:09Z</time>
      </trkpt>
      <trkpt lat="48.0808" lon="-4.22414">
        <ele>117.55</ele>
        <time>2015-10-23T09:29:20Z</time>
      </trkpt>
      <trkpt lat="48.08076" lon="-4.22405">
        <ele>118.53</ele>
        <time>2015-10-23T09:29:30Z</time>
      </trkpt>
      <trkpt lat="48.08063" lon="-4.22397">
        <ele>111.11</ele>
        <time>2015-10-23T09:29:41Z</time>
      </trkpt>
      <trkpt lat="48.08052" lon="-4.22393">
        <ele>109.92</ele>
        <time>2015-10-23T09:29:51Z</time>
      </trkpt>
      <trkpt lat="48.08045" lon="-4.22388">
        <ele>112.77</ele>
        <time>2015-10-23T09:30:02Z</time>
      </trkpt>
      <trkpt lat="48.08024" lon="-4.22394">
        <ele>107.24</ele>
        <time>2015-10-23T09:30:13Z</time>
      </trkpt>
      <trkpt lat="48.08011" lon="-4.22405">
        <ele>110.45</ele>
        <time>2015-10-23T09:30:23Z</time>
      </trkpt>
      <trkpt lat="48.08004" lon="-4.22409">
        <ele>103.19</ele>
        <time>2015-10-23T09:30:34Z</time>
      </trkpt>
      <trkpt lat="48.07994" lon="-4.22398">
        <ele>105.62</ele>
        <time>2015-10-23T09:30:44Z</time>
      </trkpt>
      <trkpt lat="48.07974" lon="-4.22406">
        <ele>106.54</ele>
        <time>2015-10-23T09:30:55Z</time>
      </trkpt>
      <trkpt lat="48.07966" lon="-4.22422">
        <ele>106.94</ele>
        <time>2015-10-23T09:31:05Z</time>
      </trkpt>
      <trkpt lat="48.07952" lon="-4.22436">
        <ele>108.12</ele>
        <time>2015-10-23T09:31:16Z</time>
      </trkpt>
      <trkpt lat="48.07946" lon="-4.2245">
        <ele>106.84</ele>
        <time>2015-10-23T09:31:26Z</time>
      </trkpt>
      <trkpt lat="48.07937" lon="-4.2246">
        <ele>107.96</ele>
        <time>2015-10-23T09:31:36Z</time>
      </trkpt>
      <trkpt lat="48.07931" lon="-4.22476">
        <ele>108.52</ele>
        <time>2015-10-23T09:31:47Z</time>
      </trkpt>
      <trkpt lat="48.07923" lon="-4.2248">
        <ele>112.18</ele>
        <time>2015-10-23T09:31:58Z</time>
      </trkpt>
      <trkpt lat="48.07913" lon="-4.22481">
        <ele>114.87</ele>
        <time>2015-10-23T09:32:08Z</time>
      </trkpt>
      <trkpt lat="48.07901" lon="-4.22474">
        <ele>115.05</ele>
        <time>2015-10-23T09:32:19Z</time>
      </trkpt>
      <trkpt lat="48.07889" lon="-4.22472">
        <ele>113.75</ele>
        <time>2015-10-23T09:32:29Z</time>
      </trkpt>
      <trkpt lat="48.07876" lon="-4.22475">
        <ele>115</ele>
        <time>2015-10-23T09:32:40Z</time>
      </trkpt>
      <trkpt lat="48.07867" lon="-4.2247">
        <ele>116.93</ele>
        <time>2015-10-23T09:32:51Z</time>
      </trkpt>
      <trkpt lat="48.07863" lon="-4.2247">
        <ele>115.77</ele>
        <time>2015-10-23T09:33:02Z</time>
      </trkpt>
      <trkpt lat="48.07863" lon="-4.2247">
        <ele>114</ele>
        <time>2015-10-23T09:33:13Z</time>
      </trkpt>
      <trkpt lat="48.07862" lon="-4.22471">
        <ele>113.25</ele>
        <time>2015-10-23T09:34:02Z</time>
      </trkpt>
      <trkpt lat="48.07862" lon="-4.22471">
        <ele>113</ele>
        <time>2015-10-23T09:34:22Z</time>
      </trkpt>
    </trkseg>
  </trk>
</gpx>